Flight Track Log - Related Links

Times and Time Zones

All times are in EDT time to prevent confusion due to time zone crossing. See the A6-EDY flight status page for this flight to view local times or setup timezone preferences in your user account.

Time Position Orientation Groundspeed Altitude Reporting Facility
EDT Latitude Longitude Course Direction KTS MPH feet Rate Location/Type
Fri 01:20:23 AM 25.2580 55.3620 299° West 146 168 200  Level FlightAware ADS-B
Fri 01:20:53 AM 25.2720 55.3380 303° West 166 191 1,000 1,286 Climbing FlightAware ADS-B
Fri 01:21:33 AM 25.2900 55.3050 301° West 191 220 1,700 960 Climbing FlightAware ADS-B
Fri 01:22:08 AM 25.3050 55.2780 302° West 216 249 2,200 982 Climbing FlightAware ADS-B
Fri 01:22:28 AM 25.3100 55.2580 285° West 229 264 2,600 1,691 Climbing FlightAware ADS-B
Fri 01:25:00 AM 25.5711 55.0938 322° Northwest  Level FlightAware Approximate
Fri 01:26:00 AM 25.6681 55.0198 326° Northwest  Level FlightAware Approximate
Fri 01:27:00 AM 25.7642 54.9443 324° Northwest  Level FlightAware Approximate
Fri 01:28:00 AM 25.8589 54.8664 323° Northwest  Level FlightAware Approximate
Fri 01:29:00 AM 25.9535 54.7884 323° Northwest  Level FlightAware Approximate
Fri 01:30:00 AM 26.0482 54.7106 324° Northwest  Level FlightAware Approximate
Fri 01:31:00 AM 26.1431 54.6329 324° Northwest  Level FlightAware Approximate
Fri 01:32:00 AM 26.2374 54.5543 323° Northwest  Level FlightAware Approximate
Fri 01:32:43 AM 25.5060 54.2800 323° Northwest 384 442 20,100  Level FlightAware ADS-B
Fri 01:33:33 AM 25.5310 54.1790 285° West 390 449 21,300 1,267 Climbing FlightAware ADS-B
Fri 01:34:13 AM 25.5490 54.1000 284° West 398 458 22,000 1,341 Climbing FlightAware ADS-B
Fri 01:34:58 AM 25.5710 54.0110 285° West 398 458 23,200 1,271 Climbing FlightAware ADS-B
Fri 01:35:38 AM 25.5900 53.9320 285° West 402 463 23,800 900 Climbing FlightAware ADS-B
Fri 01:36:18 AM 25.6100 53.8480 285° West 414 476 24,400 1,906 Climbing FlightAware ADS-B
Fri 01:37:03 AM 25.6300 53.7640 285° West 396 456 26,500 1,976 Climbing FlightAware ADS-B
Fri 01:37:43 AM 25.6500 53.6820 285° West 390 449 27,200 1,129 Climbing FlightAware ADS-B
Fri 01:38:28 AM 25.6710 53.5930 285° West 387 445 28,100 1,125 Climbing FlightAware ADS-B
Fri 01:39:03 AM 25.6870 53.5260 285° West 388 447 28,700 825 Climbing FlightAware ADS-B
Fri 01:39:48 AM 25.7060 53.4440 284° West 392 451 29,200 347 Climbing FlightAware ADS-B
Fri 01:42:00 AM 25.9113 53.2684 322° Northwest  Level Estimated
Fri 01:42:48 AM 25.7730 53.0810 322° Northwest 426 490 30,000  Level FlightAware ADS-B
Fri 01:45:00 AM 25.9778 52.9046 322° Northwest  Level Estimated
Fri 01:45:13 AM 25.9010 52.7920 322° Northwest 429 494 30,000  Level FlightAware ADS-B
Fri 01:46:08 AM 25.9510 52.6860 298° West 428 493 30,000  Level FlightAware ADS-B
Fri 01:47:18 AM 26.0170 52.5490 298° West 424 488 30,000 316 Level FlightAware ADS-B
Fri 01:49:00 AM 26.1716 52.4143 322° Northwest  Level Estimated
Fri 01:50:00 AM 26.2625 52.3350 322° Northwest  Level Estimated
Fri 01:51:00 AM 26.3533 52.2555 322° Northwest  Level Estimated
Fri 01:52:00 AM 26.4442 52.1759 322° Northwest  Level Estimated
Fri 01:52:28 AM 26.3060 51.9400 322° Northwest 424 488 32,000  Level FlightAware ADS-B
Fri 01:53:43 AM 26.3730 51.7960 297° West 424 488 32,000  Level FlightAware ADS-B
Fri 01:54:53 AM 26.4370 51.6600 298° West 424 488 32,000  Level FlightAware ADS-B
Fri 01:56:03 AM 26.5000 51.5250 298° West 424 488 32,000  Level FlightAware ADS-B
Fri 01:56:53 AM 26.5460 51.4260 297° West 425 489 32,000  Level FlightAware ADS-B
Fri 01:57:33 AM 26.5820 51.3460 297° West 423 487 32,000  Level FlightAware ADS-B
Fri 01:58:08 AM 26.6130 51.2780 297° West 418 481 32,000  Level FlightAware ADS-B
Fri 01:59:43 AM 26.6850 51.0930 294° West 417 480 32,000  Level FlightAware ADS-B
Fri 02:00:58 AM 26.7400 50.9490 293° West 417 480 32,000  Level FlightAware ADS-B
Fri 02:02:08 AM 26.7940 50.8140 294° West 417 480 32,000  Level FlightAware ADS-B
Fri 02:03:23 AM 26.8540 50.6580 293° West 415 478 32,000  Level FlightAware ADS-B
Fri 02:04:08 AM 26.8840 50.5780 293° West 416 479 32,000  Level FlightAware ADS-B
Fri 02:04:48 AM 26.9090 50.5110 293° West 416 479 32,000  Level FlightAware ADS-B
Fri 02:05:28 AM 26.9350 50.4430 293° West 416 479 32,000  Level FlightAware ADS-B
Fri 02:06:08 AM 26.9600 50.3760 293° West 416 479 32,000  Level FlightAware ADS-B
Fri 02:06:48 AM 26.9860 50.3080 293° West 416 479 32,000  Level FlightAware ADS-B
Fri 02:07:38 AM 27.0180 50.2240 293° West 416 479 32,000  Level FlightAware ADS-B
Fri 02:08:18 AM 27.0440 50.1560 293° West 416 479 32,000  Level FlightAware ADS-B
Fri 02:08:58 AM 27.0690 50.0880 292° West 416 479 32,000  Level FlightAware ADS-B
Fri 02:09:38 AM 27.0950 50.0210 294° West 416 479 32,000  Level FlightAware ADS-B
Fri 02:10:18 AM 27.1200 49.9530 292° West 416 479 32,000  Level FlightAware ADS-B
Fri 02:11:08 AM 27.1520 49.8680 293° West 416 479 32,000  Level FlightAware ADS-B
Fri 02:11:48 AM 27.1780 49.8010 294° West 416 479 32,000  Level FlightAware ADS-B
Fri 02:12:28 AM 27.2030 49.7330 292° West 416 479 32,000  Level FlightAware ADS-B
Fri 02:13:08 AM 27.2290 49.6650 293° West 416 479 32,000  Level FlightAware ADS-B
Fri 02:15:00 AM 27.3954 49.5109 321° Northwest  Level Estimated
Fri 02:16:00 AM 27.4845 49.4281 321° Northwest  Level Estimated
Fri 02:16:43 AM 27.9270 49.4580 321° Northwest 32,000  Level FlightAware ADS-B
Fri 02:17:18 AM 27.9920 49.4110 327° Northwest 437 503 32,000  Level FlightAware ADS-B
Fri 02:18:13 AM 28.0790 49.3490 328° Northwest 436 502 32,000  Level FlightAware ADS-B
Fri 02:19:03 AM 28.1550 49.2930 327° Northwest 436 502 32,000  Level FlightAware ADS-B
Fri 02:19:48 AM 28.2440 49.2300 328° Northwest 439 505 32,000  Level FlightAware ADS-B
Fri 02:20:18 AM 28.2980 49.1910 328° Northwest 438 504 32,000  Level FlightAware ADS-B
Fri 02:21:03 AM 28.3780 49.1330 327° Northwest 438 504 32,000  Level FlightAware ADS-B
Fri 02:21:43 AM 28.4450 49.0840 327° Northwest 439 505 32,000  Level FlightAware ADS-B
Fri 02:22:33 AM 28.5290 49.0230 327° Northwest 442 509 32,000  Level FlightAware ADS-B
Fri 02:23:13 AM 28.5940 48.9760 328° Northwest 442 509 32,000  Level FlightAware ADS-B
Fri 02:23:53 AM 28.6710 48.9200 327° Northwest 439 505 32,000  Level FlightAware ADS-B
Fri 02:24:38 AM 28.7490 48.8630 327° Northwest 436 502 32,000  Level FlightAware ADS-B
Fri 02:25:23 AM 28.8220 48.8100 328° Northwest 433 498 32,000  Level FlightAware ADS-B
Fri 02:26:03 AM 28.8900 48.7600 327° Northwest 434 499 32,000  Level FlightAware ADS-B
Fri 02:26:48 AM 28.9660 48.7040 327° Northwest 434 499 32,000  Level FlightAware ADS-B
Fri 02:27:23 AM 29.0290 48.6580 327° Northwest 434 499 32,000  Level FlightAware ADS-B
Fri 02:28:18 AM 29.1150 48.5940 327° Northwest 434 499 32,000  Level FlightAware ADS-B
Fri 02:28:58 AM 29.1870 48.5410 327° Northwest 433 498 32,000  Level FlightAware ADS-B
Fri 02:29:48 AM 29.2620 48.4860 327° Northwest 432 497 32,000  Level FlightAware ADS-B
Fri 02:30:38 AM 29.3480 48.4220 327° Northwest 435 501 32,000  Level FlightAware ADS-B
Fri 02:31:28 AM 29.4370 48.3550 327° Northwest 438 504 32,000  Level FlightAware ADS-B
Fri 02:32:23 AM 29.5330 48.2850 328° Northwest 438 504 32,000  Level FlightAware ADS-B
Fri 02:33:03 AM 29.5990 48.2350 327° Northwest 435 501 32,000  Level FlightAware ADS-B
Fri 02:33:43 AM 29.6670 48.1850 327° Northwest 434 499 32,000  Level FlightAware ADS-B
Fri 02:34:18 AM 29.7220 48.1440 327° Northwest 434 499 32,000  Level FlightAware ADS-B
Fri 02:35:08 AM 29.8180 48.0720 327° Northwest 432 497 32,000  Level FlightAware ADS-B
Fri 02:35:48 AM 29.8780 48.0270 327° Northwest 434 499 32,000  Level FlightAware ADS-B
Fri 02:36:33 AM 29.9580 47.9670 327° Northwest 434 499 32,000  Level FlightAware ADS-B
Fri 02:37:13 AM 30.0180 47.9190 325° Northwest 432 497 32,000  Level FlightAware ADS-B
Fri 02:37:53 AM 30.0730 47.8740 325° Northwest 432 497 32,000  Level FlightAware ADS-B
Fri 02:38:03 AM 30.0870 47.8320 291° West 410 472 32,000  Level FlightAware ADS-B
Fri 02:38:53 AM 30.1450 47.7540 311° West 414 476 32,000  Level FlightAware ADS-B
Fri 02:39:33 AM 30.2030 47.6840 314° West 428 493 32,000  Level FlightAware ADS-B
Fri 02:40:18 AM 30.2740 47.6120 319° Northwest 426 490 32,000  Level FlightAware ADS-B
Fri 02:41:08 AM 30.3360 47.5470 318° Northwest 424 488 32,000  Level FlightAware ADS-B
Fri 02:41:48 AM 30.3860 47.4950 318° Northwest 424 488 32,000  Level FlightAware ADS-B
Fri 02:42:38 AM 30.4480 47.4300 318° Northwest 424 488 32,000  Level FlightAware ADS-B
Fri 02:43:18 AM 30.4980 47.3790 319° Northwest 424 488 32,000  Level FlightAware ADS-B
Fri 02:43:58 AM 30.5470 47.3270 318° Northwest 424 488 32,000  Level FlightAware ADS-B
Fri 02:44:38 AM 30.6450 47.2280 319° Northwest 419 482 32,000  Level FlightAware ADS-B
Fri 02:45:18 AM 30.6940 47.1770 318° Northwest 419 482 32,000  Level FlightAware ADS-B
Fri 02:46:08 AM 30.7550 47.1120 318° Northwest 419 482 32,000  Level FlightAware ADS-B
Fri 02:46:48 AM 30.8040 47.0610 318° Northwest 419 482 32,000  Level FlightAware ADS-B
Fri 02:47:28 AM 30.8530 47.0100 318° Northwest 419 482 32,000  Level FlightAware ADS-B
Fri 02:48:08 AM 30.9020 46.9580 318° Northwest 419 482 32,000  Level FlightAware ADS-B
Fri 02:48:48 AM 30.9510 46.9070 318° Northwest 419 482 32,000  Level FlightAware ADS-B
Fri 02:49:28 AM 31.0000 46.8550 318° Northwest 419 482 32,000  Level FlightAware ADS-B
Fri 02:50:18 AM 31.0610 46.7910 318° Northwest 419 482 32,000  Level FlightAware ADS-B
Fri 02:50:58 AM 31.1100 46.7400 318° Northwest 419 482 32,000  Level FlightAware ADS-B
Fri 02:51:38 AM 31.1590 46.6880 318° Northwest 419 482 32,000  Level FlightAware ADS-B
Fri 02:52:18 AM 31.2080 46.6370 318° Northwest 419 482 32,000  Level FlightAware ADS-B
Fri 02:53:08 AM 31.2690 46.5720 318° Northwest 419 482 32,000  Level FlightAware ADS-B
Fri 02:53:48 AM 31.3180 46.5200 318° Northwest 419 482 32,000  Level FlightAware ADS-B
Fri 02:56:00 AM 31.5098 46.3248 319° Northwest  Level Estimated
Fri 02:57:00 AM 31.5968 46.2358 319° Northwest  Level Estimated
Fri 02:58:00 AM 31.6838 46.1466 319° Northwest  Level Estimated
Fri 02:59:00 AM 31.7707 46.0573 319° Northwest  Level Estimated
Fri 03:00:00 AM 31.8576 45.9678 319° Northwest  Level Estimated
Fri 03:01:00 AM 31.9444 45.8781 319° Northwest  Level Estimated
Fri 03:02:00 AM 32.0312 45.7883 319° Northwest  Level Estimated
Fri 03:03:00 AM 32.1179 45.6983 319° Northwest  Level Estimated
Fri 03:04:00 AM 32.2045 45.6081 319° Northwest  Level Estimated
Fri 03:05:00 AM 32.2910 45.5177 319° Northwest  Level Estimated
Fri 03:06:00 AM 32.3775 45.4272 319° Northwest  Level Estimated
Fri 03:07:00 AM 32.4639 45.3365 318° Northwest  Level Estimated
Fri 03:07:22 AM 32.6180 45.1130 318° Northwest 431 496 32,000  Level FlightAware ADS-B
Fri 03:08:07 AM 32.6900 45.0560 326° Northwest 446 513 32,000  Level FlightAware ADS-B
Fri 03:08:47 AM 32.7660 45.0100 333° Northwest 451 519 32,000  Level FlightAware ADS-B
Fri 03:09:27 AM 32.8440 44.9620 333° Northwest 450 518 32,000  Level FlightAware ADS-B
Fri 03:10:12 AM 32.9240 44.9120 332° Northwest 454 522 32,000  Level FlightAware ADS-B
Fri 03:10:52 AM 33.0000 44.8660 333° Northwest 456 525 32,000  Level FlightAware ADS-B
Fri 03:11:37 AM 33.0870 44.8130 333° Northwest 457 526 32,000  Level FlightAware ADS-B
Fri 03:12:17 AM 33.1610 44.7680 333° Northwest 460 529 32,000 150 Level FlightAware ADS-B
Fri 03:12:57 AM 33.2390 44.7260 336° Northwest 471 542 32,200 635 Climbing FlightAware ADS-B
Fri 03:13:42 AM 33.3340 44.6910 343° North 476 548 32,900 847 Climbing FlightAware ADS-B
Fri 03:14:22 AM 33.4200 44.6590 343° North 477 549 33,400 706 Climbing FlightAware ADS-B
Fri 03:15:07 AM 33.5130 44.6240 343° North 477 549 33,900 424 Climbing FlightAware ADS-B
Fri 03:15:47 AM 33.5940 44.5870 339° North 462 532 34,000 71 Climbing FlightAware ADS-B
Fri 03:16:32 AM 33.6830 44.5430 338° Northwest 464 534 34,000  Level FlightAware ADS-B
Fri 03:17:12 AM 33.7640 44.5030 338° Northwest 460 529 34,000  Level FlightAware ADS-B
Fri 03:17:52 AM 33.8430 44.4650 338° Northwest 459 528 34,000  Level FlightAware ADS-B
Fri 03:18:32 AM 33.9170 44.4280 337° Northwest 459 528 34,000  Level FlightAware ADS-B
Fri 03:19:17 AM 34.0050 44.3840 337° Northwest 460 529 34,000  Level FlightAware ADS-B
Fri 03:20:02 AM 34.1020 44.3360 338° Northwest 461 531 34,000  Level FlightAware ADS-B
Fri 03:20:42 AM 34.1770 44.2990 338° Northwest 463 533 34,000  Level FlightAware ADS-B
Fri 03:21:22 AM 34.2600 44.2580 338° Northwest 463 533 34,000  Level FlightAware ADS-B
Fri 03:22:07 AM 34.3480 44.2140 338° Northwest 464 534 34,000  Level FlightAware ADS-B
Fri 03:22:47 AM 34.4280 44.1740 338° Northwest 464 534 34,000  Level FlightAware ADS-B
Fri 03:23:32 AM 34.5180 44.1290 338° Northwest 464 534 34,000  Level FlightAware ADS-B
Fri 03:24:12 AM 34.5970 44.0870 336° Northwest 464 534 34,000  Level FlightAware ADS-B
Fri 03:24:52 AM 34.6730 44.0470 337° Northwest 465 535 34,000  Level FlightAware ADS-B
Fri 03:25:37 AM 34.7620 44.0000 337° Northwest 466 536 34,000  Level FlightAware ADS-B
Fri 03:26:17 AM 34.8430 43.9580 337° Northwest 467 537 34,000  Level FlightAware ADS-B
Fri 03:26:57 AM 34.9220 43.9160 336° Northwest 467 537 34,000  Level FlightAware ADS-B
Fri 03:27:42 AM 35.0140 43.8680 337° Northwest 469 540 34,000  Level FlightAware ADS-B
Fri 03:28:22 AM 35.0940 43.8260 337° Northwest 471 542 34,000  Level FlightAware ADS-B
Fri 03:29:07 AM 35.1820 43.7790 336° Northwest 474 545 34,000  Level FlightAware ADS-B
Fri 03:29:47 AM 35.2620 43.7360 336° Northwest 476 548 34,000  Level FlightAware ADS-B
Fri 03:30:32 AM 35.3560 43.6860 337° Northwest 480 552 34,000  Level FlightAware ADS-B
Fri 03:31:12 AM 35.4340 43.6450 337° Northwest 480 552 34,000  Level FlightAware ADS-B
Fri 03:31:57 AM 35.5270 43.5950 336° Northwest 479 551 34,000  Level FlightAware ADS-B
Fri 03:32:37 AM 35.6090 43.5510 336° Northwest 478 550 34,000  Level FlightAware ADS-B
Fri 03:33:17 AM 35.6890 43.5080 336° Northwest 476 548 34,000  Level FlightAware ADS-B
Fri 03:33:57 AM 35.7690 43.4650 336° Northwest 471 542 34,000  Level FlightAware ADS-B
Fri 03:34:42 AM 35.8580 43.4170 336° Northwest 471 542 34,000  Level FlightAware ADS-B
Fri 03:35:22 AM 35.9400 43.3730 337° Northwest 471 542 34,000  Level FlightAware ADS-B
Fri 03:36:07 AM 36.0290 43.3240 336° Northwest 473 544 34,000  Level FlightAware ADS-B
Fri 03:36:47 AM 36.1100 43.2810 337° Northwest 473 544 34,000  Level FlightAware ADS-B
Fri 03:37:32 AM 36.2010 43.2310 336° Northwest 475 547 34,000  Level FlightAware ADS-B
Fri 03:38:12 AM 36.2820 43.1860 336° Northwest 478 550 34,000  Level FlightAware ADS-B
Fri 03:38:57 AM 36.3720 43.1360 336° Northwest 478 550 34,000  Level FlightAware ADS-B
Fri 03:39:37 AM 36.4510 43.0920 336° Northwest 478 550 34,000  Level FlightAware ADS-B
Fri 03:40:17 AM 36.5330 43.0470 336° Northwest 481 554 34,000  Level FlightAware ADS-B
Fri 03:40:57 AM 36.6150 43.0020 336° Northwest 483 556 34,000  Level FlightAware ADS-B
Fri 03:41:42 AM 36.7060 42.9510 336° Northwest 483 556 34,000  Level FlightAware ADS-B
Fri 03:42:27 AM 36.7980 42.8990 336° Northwest 484 557 34,000  Level FlightAware ADS-B
Fri 03:43:07 AM 36.8810 42.8540 337° Northwest 484 557 34,000  Level FlightAware ADS-B
Fri 03:43:47 AM 36.9640 42.8080 336° Northwest 486 559 34,000  Level FlightAware ADS-B
Fri 03:44:32 AM 37.0540 42.7580 336° Northwest 487 560 34,000  Level FlightAware ADS-B
Fri 03:45:12 AM 37.1410 42.7100 336° Northwest 487 560 34,000  Level FlightAware ADS-B
Fri 03:45:42 AM 37.2010 42.6740 334° Northwest 481 554 34,000  Level FlightAware ADS-B
Fri 03:46:22 AM 37.2740 42.6140 327° Northwest 474 545 34,000  Level FlightAware ADS-B
Fri 03:47:02 AM 37.3420 42.5430 320° Northwest 467 537 34,000  Level FlightAware ADS-B
Fri 03:47:47 AM 37.4110 42.4630 317° Northwest 469 540 34,000  Level FlightAware ADS-B
Fri 03:48:27 AM 37.4750 42.3890 317° Northwest 471 542 34,000  Level FlightAware ADS-B
Fri 03:49:12 AM 37.5490 42.3040 318° Northwest 471 542 34,000  Level FlightAware ADS-B
Fri 03:49:52 AM 37.6130 42.2290 317° Northwest 470 541 34,000  Level FlightAware ADS-B
Fri 03:50:32 AM 37.6770 42.1540 317° Northwest 469 540 34,000  Level FlightAware ADS-B
Fri 03:51:17 AM 37.7480 42.0720 318° Northwest 469 540 34,000  Level FlightAware ADS-B
Fri 03:51:57 AM 37.8080 42.0010 317° Northwest 469 540 34,000  Level FlightAware ADS-B
Fri 03:52:37 AM 37.8740 41.9240 317° Northwest 471 542 34,000  Level FlightAware ADS-B
Fri 03:53:22 AM 37.9410 41.8380 315° West 465 535 34,000  Level FlightAware ADS-B
Fri 03:54:07 AM 37.9970 41.7530 310° West 465 535 34,000  Level FlightAware ADS-B
Fri 03:54:47 AM 38.0440 41.6820 310° West 465 535 34,000  Level FlightAware ADS-B
Fri 03:55:27 AM 38.0910 41.6110 310° West 465 535 34,000  Level FlightAware ADS-B
Fri 03:56:07 AM 38.1380 41.5400 310° West 465 535 34,000  Level FlightAware ADS-B
Fri 03:56:47 AM 38.1850 41.4680 310° West 465 535 34,000  Level FlightAware ADS-B
Fri 03:57:37 AM 38.2440 41.3790 310° West 465 535 34,000  Level FlightAware ADS-B
Fri 03:58:17 AM 38.2910 41.3080 310° West 465 535 34,000  Level FlightAware ADS-B
Fri 03:58:57 AM 38.3380 41.2370 310° West 465 535 34,000  Level FlightAware ADS-B
Fri 03:59:37 AM 38.3850 41.1650 310° West 465 535 34,000  Level FlightAware ADS-B
Fri 04:00:17 AM 38.4320 41.0940 310° West 465 535 34,000  Level FlightAware ADS-B
Fri 04:00:57 AM 38.4790 41.0220 310° West 465 535 34,000  Level FlightAware ADS-B
Fri 04:01:47 AM 38.5380 40.9320 310° West 465 535 34,000  Level FlightAware ADS-B
Fri 04:02:27 AM 38.5850 40.8610 310° West 465 535 34,000  Level FlightAware ADS-B
Fri 04:03:07 AM 38.6320 40.7890 310° West 465 535 34,000  Level FlightAware ADS-B
Fri 04:05:00 AM 38.7873 40.5940 316° Northwest  Level Estimated
Fri 04:06:00 AM 38.8696 40.4901 316° Northwest  Level Estimated
Fri 04:07:00 AM 38.9519 40.3859 315° West  Level Estimated
Fri 04:08:00 AM 39.0340 40.2815 315° West  Level Estimated
Fri 04:09:00 AM 39.1161 40.1769 315° West  Level Estimated
Fri 04:10:00 AM 39.1981 40.0720 315° West  Level Estimated
Fri 04:11:00 AM 39.2799 39.9669 315° West  Level Estimated
Fri 04:12:00 AM 39.3617 39.8615 315° West  Level Estimated
Fri 04:13:00 AM 39.4434 39.7559 315° West  Level Estimated
Fri 04:14:00 AM 39.5249 39.6500 315° West  Level Estimated
Fri 04:15:00 AM 39.6064 39.5439 315° West  Level Estimated
Fri 04:16:00 AM 39.6878 39.4376 315° West  Level Estimated
Fri 04:17:00 AM 39.7691 39.3310 315° West  Level Estimated
Fri 04:18:00 AM 39.8503 39.2241 315° West  Level Estimated
Fri 04:19:00 AM 39.9314 39.1170 315° West  Level Estimated
Fri 04:20:00 AM 40.0124 39.0096 315° West  Level Estimated
Fri 04:21:00 AM 40.0933 38.9020 315° West  Level Estimated
Fri 04:22:00 AM 40.1741 38.7941 314° West  Level Estimated
Fri 04:23:00 AM 40.2548 38.6860 314° West  Level Estimated
Fri 04:24:00 AM 40.3354 38.5776 314° West  Level Estimated
Fri 04:25:00 AM 40.4159 38.4689 314° West  Level Estimated
Fri 04:26:00 AM 40.4963 38.3600 314° West  Level Estimated
Fri 04:27:00 AM 40.5766 38.2508 314° West  Level Estimated
Fri 04:28:00 AM 40.6568 38.1414 314° West  Level Estimated
Fri 04:29:00 AM 40.7369 38.0317 314° West  Level Estimated
Fri 04:30:00 AM 40.8168 37.9217 314° West  Level Estimated
Fri 04:31:00 AM 40.8967 37.8115 314° West  Level Estimated
Fri 04:32:00 AM 40.9765 37.7010 314° West  Level Estimated
Fri 04:33:00 AM 41.0561 37.5902 314° West  Level Estimated
Fri 04:34:00 AM 41.1357 37.4792 314° West  Level Estimated
Fri 04:35:00 AM 41.2151 37.3679 314° West  Level Estimated
Fri 04:36:00 AM 41.2945 37.2563 313° West  Level Estimated
Fri 04:37:00 AM 41.3737 37.1444 313° West  Level Estimated
Fri 04:38:00 AM 41.4529 37.0323 313° West  Level Estimated
Fri 04:39:00 AM 41.5319 36.9199 313° West  Level Estimated
Fri 04:40:00 AM 41.6108 36.8073 313° West  Level Estimated
Fri 04:41:00 AM 41.6896 36.6943 313° West  Level Estimated
Fri 04:42:00 AM 41.7683 36.5811 313° West  Level Estimated
Fri 04:43:00 AM 41.8469 36.4676 313° West  Level Estimated
Fri 04:44:00 AM 41.9253 36.3538 313° West  Level Estimated
Fri 04:45:00 AM 42.0037 36.2398 313° West  Level Estimated
Fri 04:46:00 AM 42.0819 36.1254 313° West  Level Estimated
Fri 04:47:00 AM 42.1600 36.0108 313° West  Level Estimated
Fri 04:48:00 AM 42.2380 35.8959 313° West  Level Estimated
Fri 04:49:00 AM 42.3159 35.7807 312° West  Level Estimated
Fri 04:49:47 AM 42.6930 34.2040 312° West 477 549 34,000  Level FlightAware ADS-B
Fri 04:50:00 AM 42.3937 35.6652 312° West  Level Estimated
Fri 04:50:32 AM 42.7640 34.1100 316° Northwest 475 547 34,000  Level FlightAware ADS-B
Fri 04:51:12 AM 42.8300 34.0320 319° Northwest 479 551 34,000  Level FlightAware ADS-B
Fri 04:51:57 AM 42.9060 33.9460 320° Northwest 481 554 34,000 141 Level FlightAware ADS-B
Fri 04:52:37 AM 42.9760 33.8650 320° Northwest 486 559 34,200 565 Climbing FlightAware ADS-B
Fri 04:53:22 AM 43.0530 33.7780 320° Northwest 486 559 34,800 776 Climbing FlightAware ADS-B
Fri 04:54:02 AM 43.1220 33.6980 320° Northwest 486 559 35,300 565 Climbing FlightAware ADS-B
Fri 04:54:47 AM 43.1980 33.6110 320° Northwest 491 565 35,600 282 Climbing FlightAware ADS-B
Fri 04:55:27 AM 43.2700 33.5280 320° Northwest 498 573 35,700 300 Climbing FlightAware ADS-B
Fri 04:56:07 AM 43.3400 33.4460 320° Northwest 499 574 36,000 212 Climbing FlightAware ADS-B
Fri 04:56:52 AM 43.4190 33.3540 320° Northwest 498 573 36,000  Level FlightAware ADS-B
Fri 04:57:32 AM 43.4870 33.2750 320° Northwest 496 571 36,000  Level FlightAware ADS-B
Fri 04:58:12 AM 43.5600 33.1900 320° Northwest 498 573 36,000  Level FlightAware ADS-B
Fri 04:58:57 AM 43.6380 33.0980 320° Northwest 497 572 36,000  Level FlightAware ADS-B
Fri 04:59:37 AM 43.7070 33.0160 319° Northwest 497 572 36,000  Level FlightAware ADS-B
Fri 05:00:22 AM 43.7860 32.9230 320° Northwest 498 573 36,000  Level FlightAware ADS-B
Fri 05:01:02 AM 43.8560 32.8390 319° Northwest 499 574 36,000  Level FlightAware ADS-B
Fri 05:01:42 AM 43.9270 32.7550 320° Northwest 499 574 36,000  Level FlightAware ADS-B
Fri 05:02:27 AM 44.0050 32.6610 319° Northwest 498 573 36,000  Level FlightAware ADS-B
Fri 05:03:07 AM 44.0720 32.5800 319° Northwest 495 570 36,000  Level FlightAware ADS-B
Fri 05:03:52 AM 44.1500 32.4850 319° Northwest 492 566 36,000  Level FlightAware ADS-B
Fri 05:04:32 AM 44.2190 32.4030 320° Northwest 492 566 36,000  Level FlightAware ADS-B
Fri 05:05:17 AM 44.3000 32.3090 320° Northwest 494 568 36,000  Level FlightAware ADS-B
Fri 05:05:57 AM 44.3690 32.2270 320° Northwest 496 571 36,000  Level FlightAware ADS-B
Fri 05:06:37 AM 44.4400 32.1440 320° Northwest 498 573 36,000  Level FlightAware ADS-B
Fri 05:07:22 AM 44.5180 32.0500 319° Northwest 500 575 36,000  Level FlightAware ADS-B
Fri 05:09:00 AM 44.6387 31.8465 310° West  Level Estimated
Fri 05:10:00 AM 44.7124 31.7216 310° West  Level Estimated
Fri 05:11:00 AM 44.7860 31.5963 310° West  Level Estimated
Fri 05:12:00 AM 44.8594 31.4706 310° West  Level Estimated
Fri 05:12:07 AM 44.9960 31.4490 310° West 500 575 36,000  Level FlightAware ADS-B
Fri 05:12:47 AM 45.0740 31.3490 318° Northwest 500 575 36,000  Level FlightAware ADS-B
Fri 05:13:52 AM 45.1930 31.1970 318° Northwest 502 578 36,000  Level FlightAware ADS-B
Fri 05:14:27 AM 45.1930 31.1970 318° Northwest 504 580 36,000  Level FlightAware ADS-B
Fri 05:15:17 AM 45.3340 31.0160 318° Northwest 499 574 36,000  Level FlightAware ADS-B
Fri 05:15:57 AM 45.4090 30.9230 319° Northwest 500 575 36,000  Level FlightAware ADS-B
Fri 05:16:42 AM 45.4800 30.8340 319° Northwest 505 581 36,000  Level FlightAware ADS-B
Fri 05:17:37 AM 45.5790 30.7070 318° Northwest 511 588 36,000  Level FlightAware ADS-B
Fri 05:18:17 AM 45.6550 30.6110 319° Northwest 513 590 36,000  Level FlightAware ADS-B
Fri 05:19:02 AM 45.7330 30.5110 318° Northwest 513 590 36,000  Level FlightAware ADS-B
Fri 05:19:57 AM 45.8300 30.3870 318° Northwest 507 583 36,000  Level FlightAware ADS-B
Fri 05:20:42 AM 45.9080 30.2860 318° Northwest 507 583 36,000  Level FlightAware ADS-B
Fri 05:21:12 AM 45.9630 30.2160 319° Northwest 508 585 36,000  Level FlightAware ADS-B
Fri 05:22:02 AM 46.0450 30.1090 318° Northwest 507 583 36,000  Level FlightAware ADS-B
Fri 05:22:37 AM 46.1090 30.0260 318° Northwest 507 583 36,000  Level FlightAware ADS-B
Fri 05:23:27 AM 46.1930 29.9160 318° Northwest 508 585 36,000  Level FlightAware ADS-B
Fri 05:24:52 AM 46.3420 29.7210 318° Northwest 508 585 36,000  Level FlightAware ADS-B
Fri 05:25:32 AM 46.4120 29.6260 317° Northwest 510 587 36,000  Level FlightAware ADS-B
Fri 05:26:17 AM 46.4850 29.5240 316° Northwest 510 587 36,000  Level FlightAware ADS-B
Fri 05:28:00 AM 46.6066 29.2964 308° West  Level Estimated
Fri 05:28:37 AM 46.7140 29.2050 308° West 504 580 36,000  Level FlightAware ADS-B
Fri 05:29:17 AM 46.7710 29.1240 316° Northwest 504 580 36,000  Level FlightAware ADS-B
Fri 05:29:57 AM 46.8280 29.0440 316° Northwest 504 580 36,000  Level FlightAware ADS-B
Fri 05:30:37 AM 46.8850 28.9630 316° Northwest 504 580 36,000  Level FlightAware ADS-B
Fri 05:31:17 AM 46.9420 28.8830 316° Northwest 504 580 36,000  Level FlightAware ADS-B
Fri 05:32:47 AM 47.1360 28.6200 317° Northwest 497 572 36,000  Level FlightAware ADS-B
Fri 05:33:42 AM 47.2260 28.4970 317° Northwest 498 573 36,000  Level FlightAware ADS-B
Fri 05:34:22 AM 47.2960 28.4000 317° Northwest 497 572 36,000  Level FlightAware ADS-B
Fri 05:35:02 AM 47.3650 28.3060 317° Northwest 496 571 36,000  Level FlightAware ADS-B
Fri 05:35:47 AM 47.4380 28.2050 317° Northwest 495 570 36,000  Level FlightAware ADS-B
Fri 05:36:22 AM 47.5040 28.1130 317° Northwest 492 566 36,000  Level FlightAware ADS-B
Fri 05:37:07 AM 47.5610 28.0340 317° Northwest 491 565 36,000  Level FlightAware ADS-B
Fri 05:37:52 AM 47.6300 27.9380 317° Northwest 491 565 36,000  Level FlightAware ADS-B
Fri 05:39:37 AM 47.8140 27.6770 316° Northwest 493 567 36,000  Level FlightAware ADS-B
Fri 05:40:17 AM 47.8700 27.5970 316° Northwest 493 567 36,000  Level FlightAware ADS-B
Fri 05:40:57 AM 47.9250 27.5160 315° West 493 567 36,000  Level FlightAware ADS-B
Fri 05:41:37 AM 47.9810 27.4360 316° Northwest 493 567 36,000  Level FlightAware ADS-B
Fri 05:42:17 AM 48.0370 27.3550 316° Northwest 493 567 36,000  Level FlightAware ADS-B
Fri 05:43:07 AM 48.1070 27.2550 316° Northwest 493 567 36,000  Level FlightAware ADS-B
Fri 05:43:57 AM 48.2370 27.0720 317° Northwest 500 575 36,000  Level FlightAware ADS-B
Fri 05:44:52 AM 48.3380 26.9250 316° Northwest 501 577 36,000  Level FlightAware ADS-B
Fri 05:45:37 AM 48.4100 26.8240 317° Northwest 500 575 36,000  Level FlightAware ADS-B
Fri 05:46:12 AM 48.4620 26.7520 317° Northwest 500 575 36,000  Level FlightAware ADS-B
Fri 05:46:57 AM 48.5380 26.6430 316° Northwest 496 571 36,000  Level FlightAware ADS-B
Fri 05:47:42 AM 48.6200 26.5250 316° Northwest 494 568 36,000  Level FlightAware ADS-B
Fri 05:48:17 AM 48.6810 26.4380 317° Northwest 493 567 36,000  Level FlightAware ADS-B
Fri 05:49:17 AM 48.7750 26.3030 317° Northwest 493 567 36,000  Level FlightAware ADS-B
Fri 05:49:57 AM 48.8380 26.2110 316° Northwest 495 570 36,000  Level FlightAware ADS-B
Fri 05:50:52 AM 48.9280 26.0800 316° Northwest 495 570 36,000  Level FlightAware ADS-B
Fri 05:51:37 AM 49.0090 25.9610 316° Northwest 493 567 36,000  Level FlightAware ADS-B
Fri 05:52:17 AM 49.0700 25.8720 316° Northwest 492 566 36,000  Level FlightAware ADS-B
Fri 05:53:12 AM 49.1630 25.7340 316° Northwest 494 568 36,000  Level FlightAware ADS-B
Fri 05:53:57 AM 49.2390 25.6220 316° Northwest 495 570 36,000  Level FlightAware ADS-B
Fri 05:54:32 AM 49.2970 25.5350 316° Northwest 494 568 36,000  Level FlightAware ADS-B
Fri 05:55:17 AM 49.3730 25.4210 316° Northwest 492 566 36,000  Level FlightAware ADS-B
Fri 05:56:02 AM 49.4400 25.3200 316° Northwest 492 566 36,000  Level FlightAware ADS-B
Fri 05:56:47 AM 49.5120 25.2120 316° Northwest 492 566 36,000  Level FlightAware ADS-B
Fri 05:57:27 AM 49.5810 25.1070 315° West 493 567 36,000  Level FlightAware ADS-B
Fri 05:58:07 AM 49.6510 25.0010 316° Northwest 493 567 36,000  Level FlightAware ADS-B
Fri 05:58:52 AM 49.7260 24.8870 316° Northwest 492 566 36,000  Level FlightAware ADS-B
Fri 05:59:32 AM 49.7900 24.7890 315° West 490 564 36,000  Level FlightAware ADS-B
Fri 06:00:12 AM 49.8550 24.6890 315° West 490 564 36,000  Level FlightAware ADS-B
Fri 06:00:57 AM 49.9230 24.5830 315° West 490 564 36,000  Level FlightAware ADS-B
Fri 06:01:37 AM 49.9870 24.4840 315° West 490 564 36,000  Level FlightAware ADS-B
Fri 06:02:22 AM 50.0610 24.3680 315° West 489 563 36,000  Level FlightAware ADS-B
Fri 06:03:02 AM 50.1210 24.2740 315° West 487 560 36,000  Level FlightAware ADS-B
Fri 06:03:42 AM 50.1890 24.1680 315° West 490 564 36,000  Level FlightAware ADS-B
Fri 06:04:27 AM 50.2620 24.0520 315° West 493 567 36,000  Level FlightAware ADS-B
Fri 06:05:07 AM 50.3220 23.9560 314° West 493 567 36,000  Level FlightAware ADS-B
Fri 06:05:47 AM 50.3890 23.8510 315° West 488 562 36,000  Level FlightAware ADS-B
Fri 06:06:32 AM 50.4540 23.7430 313° West 489 563 36,000  Level FlightAware ADS-B
Fri 06:07:12 AM 50.5180 23.6370 314° West 490 564 36,000  Level FlightAware ADS-B
Fri 06:07:52 AM 50.5830 23.5370 316° Northwest 491 565 36,000  Level FlightAware ADS-B
Fri 06:08:37 AM 50.6560 23.4180 314° West 490 564 36,000  Level FlightAware ADS-B
Fri 06:09:07 AM 50.7030 23.3430 315° West 490 564 36,000  Level FlightAware ADS-B
Fri 06:09:47 AM 50.7670 23.2390 314° West 488 562 36,000  Level FlightAware ADS-B
Fri 06:10:27 AM 50.8280 23.1380 314° West 487 560 36,000  Level FlightAware ADS-B
Fri 06:11:12 AM 50.8970 23.0260 314° West 484 557 36,000  Level FlightAware ADS-B
Fri 06:11:52 AM 50.9590 22.9240 314° West 483 556 36,000  Level FlightAware ADS-B
Fri 06:12:37 AM 51.0280 22.8090 314° West 480 552 36,000  Level FlightAware ADS-B
Fri 06:13:17 AM 51.0910 22.7040 314° West 479 551 36,000  Level FlightAware ADS-B
Fri 06:13:57 AM 51.1480 22.6100 314° West 480 552 36,000  Level FlightAware ADS-B
Fri 06:14:42 AM 51.2180 22.4920 313° West 481 554 36,000  Level FlightAware ADS-B
Fri 06:15:22 AM 51.2810 22.3860 314° West 482 555 36,000  Level FlightAware ADS-B
Fri 06:16:02 AM 51.3420 22.2820 313° West 483 556 36,000  Level FlightAware ADS-B
Fri 06:16:47 AM 51.4120 22.1630 313° West 483 556 36,000  Level FlightAware ADS-B
Fri 06:17:42 AM 51.4950 22.0220 313° West 483 556 36,000  Level FlightAware ADS-B
Fri 06:18:22 AM 51.5560 21.9170 313° West 482 555 36,000  Level FlightAware ADS-B
Fri 06:19:07 AM 51.6220 21.8040 313° West 481 554 36,000  Level FlightAware ADS-B
Fri 06:19:47 AM 51.6840 21.6960 313° West 481 554 36,000  Level FlightAware ADS-B
Fri 06:20:32 AM 51.7540 21.5740 313° West 483 556 36,000  Level FlightAware ADS-B
Fri 06:21:17 AM 51.8200 21.4590 313° West 481 554 36,000  Level FlightAware ADS-B
Fri 06:21:57 AM 51.8800 21.3530 313° West 481 554 36,000  Level FlightAware ADS-B
Fri 06:22:37 AM 51.9400 21.2470 313° West 479 551 36,000  Level FlightAware ADS-B
Fri 06:23:17 AM 52.0000 21.1410 313° West 479 551 36,000  Level FlightAware ADS-B
Fri 06:24:02 AM 52.0690 21.0180 312° West 479 551 36,000  Level FlightAware ADS-B
Fri 06:24:42 AM 52.1290 20.9120 313° West 480 552 36,000  Level FlightAware ADS-B
Fri 06:25:27 AM 52.1950 20.7930 312° West 482 555 36,000  Level FlightAware ADS-B
Fri 06:26:07 AM 52.2540 20.6860 312° West 482 555 36,000  Level FlightAware ADS-B
Fri 06:26:52 AM 52.3210 20.5640 312° West 481 554 36,000  Level FlightAware ADS-B
Fri 06:27:32 AM 52.3810 20.4560 312° West 480 552 36,000  Level FlightAware ADS-B
Fri 06:28:12 AM 52.4400 20.3490 312° West 480 552 36,000  Level FlightAware ADS-B
Fri 06:28:57 AM 52.5070 20.2240 311° West 480 552 36,000  Level FlightAware ADS-B
Fri 06:29:37 AM 52.5680 20.1130 312° West 480 552 36,000  Level FlightAware ADS-B
Fri 06:30:22 AM 52.6310 19.9950 311° West 477 549 36,000  Level FlightAware ADS-B
Fri 06:31:02 AM 52.6900 19.8860 312° West 476 548 36,000  Level FlightAware ADS-B
Fri 06:31:42 AM 52.7480 19.7780 312° West 475 547 36,000  Level FlightAware ADS-B
Fri 06:32:27 AM 52.8110 19.6590 311° West 473 544 36,000  Level FlightAware ADS-B
Fri 06:33:07 AM 52.8720 19.5430 311° West 471 542 36,000  Level FlightAware ADS-B
Fri 06:33:52 AM 52.9340 19.4250 311° West 469 540 36,000  Level FlightAware ADS-B
Fri 06:34:32 AM 52.9910 19.3170 311° West 466 536 36,000  Level FlightAware ADS-B
Fri 06:35:12 AM 53.0450 19.2140 311° West 463 533 36,000  Level FlightAware ADS-B
Fri 06:35:57 AM 53.1100 19.0880 311° West 460 529 36,000  Level FlightAware ADS-B
Fri 06:36:37 AM 53.1660 18.9800 311° West 460 529 36,000  Level FlightAware ADS-B
Fri 06:37:22 AM 53.2270 18.8620 311° West 460 529 36,000  Level FlightAware ADS-B
Fri 06:38:02 AM 53.2810 18.7570 311° West 463 533 36,000  Level FlightAware ADS-B
Fri 06:38:42 AM 53.3390 18.6440 311° West 463 533 36,000  Level FlightAware ADS-B
Fri 06:39:27 AM 53.3990 18.5260 310° West 461 531 36,000  Level FlightAware ADS-B
Fri 06:40:07 AM 53.4520 18.4200 310° West 459 528 36,000  Level FlightAware ADS-B
Fri 06:40:47 AM 53.5100 18.3060 311° West 459 528 36,000  Level FlightAware ADS-B
Fri 06:41:32 AM 53.5730 18.1790 310° West 459 528 36,000  Level FlightAware ADS-B
Fri 06:42:12 AM 53.6270 18.0710 310° West 459 528 36,000  Level FlightAware ADS-B
Fri 06:42:57 AM 53.6860 17.9530 310° West 460 529 36,000  Level FlightAware ADS-B
Fri 06:43:37 AM 53.7420 17.8400 310° West 459 528 36,000  Level FlightAware ADS-B
Fri 06:44:17 AM 53.7950 17.7310 309° West 459 528 36,000  Level FlightAware ADS-B
Fri 06:45:02 AM 53.8570 17.6040 310° West 459 528 36,000  Level FlightAware ADS-B
Fri 06:45:42 AM 53.9140 17.4930 311° West 460 529 36,000  Level FlightAware ADS-B
Fri 06:46:27 AM 53.9760 17.3690 310° West 460 529 36,000  Level FlightAware ADS-B
Fri 06:47:07 AM 54.0290 17.2630 310° West 458 527 36,000  Level FlightAware ADS-B
Fri 06:47:47 AM 54.0850 17.1500 310° West 456 525 36,000  Level FlightAware ADS-B
Fri 06:48:32 AM 54.1450 17.0300 311° West 453 521 36,000  Level FlightAware ADS-B
Fri 06:49:12 AM 54.1990 16.9190 310° West 452 520 36,000  Level FlightAware ADS-B
Fri 06:49:57 AM 54.2570 16.8010 310° West 450 518 36,000  Level FlightAware ADS-B
Fri 06:50:37 AM 54.3100 16.6920 310° West 453 521 36,000  Level FlightAware ADS-B
Fri 06:51:17 AM 54.3740 16.5850 316° Northwest 461 531 36,000  Level FlightAware ADS-B
Fri 06:52:02 AM 54.4420 16.4730 316° Northwest 458 527 36,000  Level FlightAware ADS-B
Fri 06:52:42 AM 54.5000 16.3740 315° West 458 527 36,000  Level FlightAware ADS-B
Fri 06:53:22 AM 54.5620 16.2700 316° Northwest 460 529 36,000  Level FlightAware ADS-B
Fri 06:54:07 AM 54.6310 16.1520 315° West 461 531 36,000  Level FlightAware ADS-B
Fri 06:54:47 AM 54.6880 16.0540 315° West 462 532 36,000  Level FlightAware ADS-B
Fri 06:55:32 AM 54.7580 15.9350 316° Northwest 463 533 36,000  Level FlightAware ADS-B
Fri 06:56:12 AM 54.8200 15.8280 315° West 465 535 36,000  Level FlightAware ADS-B
Fri 06:56:52 AM 54.8800 15.7240 315° West 466 536 36,000  Level FlightAware ADS-B
Fri 06:57:37 AM 54.9480 15.6050 315° West 467 537 36,000  Level FlightAware ADS-B
Fri 06:58:17 AM 55.0050 15.5050 315° West 465 535 36,000  Level FlightAware ADS-B
Fri 06:58:57 AM 55.0680 15.3950 315° West 465 535 36,000  Level FlightAware ADS-B
Fri 06:59:42 AM 55.1350 15.2770 315° West 468 539 36,000  Level FlightAware ADS-B
Fri 07:00:17 AM 55.1870 15.1840 314° West 469 540 36,000  Level FlightAware ADS-B
Fri 07:01:07 AM 55.2650 15.0460 315° West 463 533 36,000  Level FlightAware ADS-B
Fri 07:01:47 AM 55.3250 14.9370 314° West 466 536 36,000  Level FlightAware ADS-B
Fri 07:02:32 AM 55.3950 14.8120 315° West 472 543 36,000  Level FlightAware ADS-B
Fri 07:03:17 AM 55.4600 14.6930 314° West 471 542 36,000  Level FlightAware ADS-B
Fri 07:03:52 AM 55.5140 14.5950 314° West 471 542 36,000  Level FlightAware ADS-B
Fri 07:04:37 AM 55.5820 14.4720 314° West 473 544 36,000  Level FlightAware ADS-B
Fri 07:05:22 AM 55.6520 14.3440 314° West 468 539 36,000  Level FlightAware ADS-B
Fri 07:06:02 AM 55.7130 14.2360 315° West 468 539 36,000  Level FlightAware ADS-B
Fri 07:06:47 AM 55.7840 14.1240 318° Northwest 463 533 36,000  Level FlightAware ADS-B
Fri 07:07:27 AM 55.8470 14.0220 318° Northwest 464 534 36,000  Level FlightAware ADS-B
Fri 07:08:07 AM 55.9110 13.9190 318° Northwest 465 535 36,000  Level FlightAware ADS-B
Fri 07:08:52 AM 55.9830 13.8000 317° Northwest 464 534 36,000  Level FlightAware ADS-B
Fri 07:09:32 AM 56.0460 13.6970 318° Northwest 463 533 36,000  Level FlightAware ADS-B
Fri 07:10:12 AM 56.1080 13.5940 317° Northwest 464 534 36,000  Level FlightAware ADS-B
Fri 07:10:57 AM 56.1820 13.4720 317° Northwest 466 536 36,000  Level FlightAware ADS-B
Fri 07:11:37 AM 56.2390 13.3620 313° West 454 522 36,000  Level FlightAware ADS-B
Fri 07:12:22 AM 56.2980 13.2330 310° West 454 522 36,000  Level FlightAware ADS-B
Fri 07:13:02 AM 56.3520 13.1170 310° West 454 522 36,000  Level FlightAware ADS-B
Fri 07:13:47 AM 56.4130 12.9830 309° West 456 525 36,000  Level FlightAware ADS-B
Fri 07:14:27 AM 56.4650 12.8700 310° West 458 527 36,000  Level FlightAware ADS-B
Fri 07:15:07 AM 56.5200 12.7490 310° West 459 528 36,000  Level FlightAware ADS-B
Fri 07:15:52 AM 56.5790 12.6200 310° West 459 528 36,000  Level FlightAware ADS-B
Fri 07:16:32 AM 56.6320 12.5030 310° West 459 528 36,000  Level FlightAware ADS-B
Fri 07:17:12 AM 56.6870 12.3800 309° West 459 528 36,000  Level FlightAware ADS-B
Fri 07:17:57 AM 56.7490 12.2410 309° West 462 532 36,000  Level FlightAware ADS-B
Fri 07:18:37 AM 56.8000 12.1260 309° West 464 534 36,000  Level FlightAware ADS-B
Fri 07:19:22 AM 56.8610 11.9880 309° West 463 533 36,000  Level FlightAware ADS-B
Fri 07:20:02 AM 56.9150 11.8650 309° West 465 535 36,000  Level FlightAware ADS-B
Fri 07:20:42 AM 56.9690 11.7400 308° West 463 533 36,000  Level FlightAware ADS-B
Fri 07:21:27 AM 57.0300 11.6000 309° West 462 532 36,000  Level FlightAware ADS-B
Fri 07:22:07 AM 57.0820 11.4790 308° West 462 532 36,000  Level FlightAware ADS-B
Fri 07:22:47 AM 57.1350 11.3560 308° West 462 532 36,000  Level FlightAware ADS-B
Fri 07:23:32 AM 57.1930 11.2200 308° West 465 535 36,000  Level FlightAware ADS-B
Fri 07:24:12 AM 57.2460 11.0950 308° West 468 539 36,000  Level FlightAware ADS-B
Fri 07:24:57 AM 57.3060 10.9540 308° West 468 539 36,000  Level FlightAware ADS-B
Fri 07:25:37 AM 57.3610 10.8220 308° West 467 537 36,000  Level FlightAware ADS-B
Fri 07:26:22 AM 57.4190 10.6840 308° West 469 540 36,000  Level FlightAware ADS-B
Fri 07:27:02 AM 57.4730 10.5560 308° West 475 547 36,000  Level FlightAware ADS-B
Fri 07:27:42 AM 57.5260 10.4260 307° West 476 548 36,000  Level FlightAware ADS-B
Fri 07:28:27 AM 57.5870 10.2790 308° West 469 540 36,000  Level FlightAware ADS-B
Fri 07:29:07 AM 57.6390 10.1500 307° West 468 539 36,000  Level FlightAware ADS-B
Fri 07:29:47 AM 57.6920 10.0210 308° West 470 541 36,000  Level FlightAware ADS-B
Fri 07:30:32 AM 57.7500 9.8770 307° West 471 542 36,000  Level FlightAware ADS-B
Fri 07:31:12 AM 57.8020 9.7480 307° West 473 544 36,000  Level FlightAware ADS-B
Fri 07:31:57 AM 57.8620 9.5980 307° West 475 547 36,000  Level FlightAware ADS-B
Fri 07:32:37 AM 57.9130 9.4680 306° West 471 542 36,000  Level FlightAware ADS-B
Fri 07:33:17 AM 57.9660 9.3350 307° West 469 540 36,000  Level FlightAware ADS-B
Fri 07:34:02 AM 58.0230 9.1900 307° West 463 533 36,000  Level FlightAware ADS-B
Fri 07:34:42 AM 58.0720 9.0640 306° West 460 529 36,000  Level FlightAware ADS-B
Fri 07:35:27 AM 58.1300 8.9140 306° West 460 529 36,000 71 Level FlightAware ADS-B
Fri 07:36:07 AM 58.1790 8.7880 306° West 464 534 36,100 375 Climbing FlightAware ADS-B
Fri 07:36:47 AM 58.2310 8.6520 306° West 470 541 36,500 706 Climbing FlightAware ADS-B
Fri 07:37:32 AM 58.2870 8.5060 306° West 466 536 37,100 635 Climbing FlightAware ADS-B
Fri 07:38:12 AM 58.3360 8.3760 306° West 470 541 37,400 494 Climbing FlightAware ADS-B
Fri 07:38:57 AM 58.3960 8.2170 306° West 472 543 37,800 424 Climbing FlightAware ADS-B
Fri 07:39:37 AM 58.4460 8.0830 306° West 465 535 38,000 150 Climbing FlightAware ADS-B
Fri 07:40:17 AM 58.4960 7.9510 306° West 459 528 38,000  Level FlightAware ADS-B
Fri 07:41:02 AM 58.5500 7.8040 305° West 460 529 38,000  Level FlightAware ADS-B
Fri 07:41:42 AM 58.5990 7.6710 305° West 459 528 38,000  Level FlightAware ADS-B
Fri 07:42:27 AM 58.6540 7.5200 305° West 459 528 38,000  Level FlightAware ADS-B
Fri 07:43:07 AM 58.7020 7.3870 305° West 459 528 38,000  Level FlightAware ADS-B
Fri 07:43:42 AM 58.7410 7.2800 305° West 462 532 38,000  Level FlightAware ADS-B
Fri 07:44:32 AM 58.8050 7.1010 305° West 464 534 38,000  Level FlightAware ADS-B
Fri 07:45:12 AM 58.8540 6.9650 305° West 470 541 38,000  Level FlightAware ADS-B
Fri 07:45:52 AM 58.9040 6.8250 305° West 468 539 38,000  Level FlightAware ADS-B
Fri 07:46:22 AM 58.9400 6.7230 304° West 473 544 38,000  Level FlightAware ADS-B
Fri 07:47:02 AM 58.9890 6.5830 304° West 470 541 38,000  Level FlightAware ADS-B
Fri 07:47:47 AM 59.0450 6.4250 305° West 460 529 38,000  Level FlightAware ADS-B
Fri 07:48:27 AM 59.0920 6.2880 304° West 455 524 38,000  Level FlightAware ADS-B
Fri 07:49:07 AM 59.1390 6.1520 304° West 454 522 38,000  Level FlightAware ADS-B
Fri 07:49:52 AM 59.1900 6.0030 304° West 457 526 38,000  Level FlightAware ADS-B
Fri 07:50:32 AM 59.2380 5.8630 304° West 462 532 38,000  Level FlightAware ADS-B
Fri 07:51:17 AM 59.2900 5.7090 304° West 464 534 38,000  Level FlightAware ADS-B
Fri 07:51:57 AM 59.3370 5.5710 304° West 459 528 38,000 -1,500 Level FlightAware ADS-B
Fri 07:52:17 AM 59.3629 5.4934 304° West 498 573 36,500 -2,368 Descending FlightAware UK
Fri 07:52:35 AM 59.3828 5.4305 302° West 494 568 36,500 4,500 Level FlightAware UK
Fri 07:52:37 AM 59.3830 5.4340 302° West 456 525 38,000  Climbing FlightAware ADS-B
Fri 07:52:59 AM 59.4103 5.3474 302° West 492 566 36,500  Descending FlightAware UK
Fri 07:53:22 AM 59.4360 5.2750 302° West 454 522 38,000  Climbing FlightAware ADS-B
Fri 07:53:41 AM 59.4604 5.2037 302° West 490 564 36,500  Descending FlightAware UK
Fri 07:54:07 AM 59.4860 5.1220 302° West 454 522 38,000  Climbing FlightAware ADS-B
Fri 07:54:29 AM 59.5148 5.0380 302° West 488 562 36,500  Descending FlightAware UK
Fri 07:54:47 AM 59.5320 4.9830 302° West 454 522 38,000 1,429 Climbing FlightAware ADS-B
Fri 07:55:32 AM 59.5840 4.8240 303° West 457 526 38,000 -1,250 Level FlightAware ADS-B
Fri 07:55:59 AM 59.6160 4.7256 303° West 492 566 36,500  Descending FlightAware UK
Fri 07:56:12 AM 59.6280 4.6880 303° West 457 526 38,000  Climbing FlightAware ADS-B
Fri 07:56:47 AM 59.6704 4.5573 303° West 492 566 36,500  Descending FlightAware UK
Fri 07:56:52 AM 59.6730 4.5490 303° West 456 525 38,000 1,800 Climbing FlightAware ADS-B
Fri 07:57:37 AM 59.7260 4.3840 303° West 455 524 38,000 -1,233 Level FlightAware ADS-B
Fri 07:58:05 AM 59.7573 4.2824 303° West 488 562 36,500  Descending FlightAware UK
Fri 07:58:17 AM 59.7690 4.2480 303° West 454 522 38,000 1,731 Climbing FlightAware ADS-B
Fri 07:58:57 AM 59.8120 4.1110 302° West 455 524 38,000 -1,250 Level FlightAware ADS-B
Fri 07:59:29 AM 59.8507 3.9863 302° West 488 562 36,500 -1,800 Descending FlightAware UK
Fri 07:59:47 AM 59.8711 3.9227 303° West 488 562 36,500 3,214 Level FlightAware UK
Fri 07:59:57 AM 59.8800 3.8940 303° West 455 524 38,000  Climbing FlightAware ADS-B
Fri 08:00:23 AM 59.9104 3.7947 303° West 486 559 36,500  Descending FlightAware UK
Fri 08:00:37 AM 59.9260 3.7490 303° West 456 525 38,000  Climbing FlightAware ADS-B
Fri 08:00:53 AM 59.9444 3.6882 303° West 486 559 36,500  Descending FlightAware UK
Fri 08:01:22 AM 59.9740 3.5920 303° West 458 527 38,000  Climbing FlightAware ADS-B
Fri 08:01:58 AM 60.0172 3.4521 303° West 490 564 36,500  Descending FlightAware UK
Fri 08:02:17 AM 60.0310 3.4060 303° West 460 529 38,000  Climbing FlightAware ADS-B
Fri 08:02:46 AM 60.0703 3.2781 303° West 488 562 36,500 -1,915 Descending FlightAware UK
Fri 08:03:04 AM 60.0902 3.2125 301° West 492 566 36,500  Level FlightAware UK
Fri 08:03:52 AM 60.1431 3.0371 301° West 488 562 36,500  Level FlightAware UK
Fri 08:04:10 AM 60.1630 2.9715 301° West 492 566 36,500 375 Level FlightAware UK
Fri 08:07:52 AM 60.3940 2.1890 301° West 455 524 38,000 344 Climbing FlightAware ADS-B
Fri 08:08:32 AM 60.4340 2.0510 300° West 455 524 38,000  Level FlightAware ADS-B
Fri 08:09:42 AM 60.5080 1.7920 300° West 453 521 38,000  Level FlightAware ADS-B
Fri 08:10:17 AM 60.5460 1.6600 300° West 453 521 38,000  Level FlightAware ADS-B
Fri 08:10:57 AM 60.5890 1.5100 300° West 452 520 38,000  Level FlightAware ADS-B
Fri 08:11:42 AM 60.6340 1.3470 299° West 451 519 38,000  Level FlightAware ADS-B
Fri 08:12:22 AM 60.6750 1.2000 300° West 452 520 38,000  Level FlightAware ADS-B
Fri 08:13:07 AM 60.7190 1.0410 300° West 452 520 38,000  Level FlightAware ADS-B
Fri 08:13:47 AM 60.7660 0.8720 300° West 447 514 38,000  Level FlightAware ADS-B
Fri 08:14:27 AM 60.8060 0.7260 299° West 447 514 38,000  Level FlightAware ADS-B
Fri 08:15:12 AM 60.8520 0.5560 299° West 444 511 38,000  Level FlightAware ADS-B
Fri 08:15:52 AM 60.8910 0.4090 299° West 442 509 38,000  Level FlightAware ADS-B
Fri 08:16:37 AM 60.9350 0.2450 299° West 443 510 38,000  Level FlightAware ADS-B
Fri 08:17:27 AM 60.9810 0.0690 298° West 441 507 38,000  Level FlightAware ADS-B
Fri 08:18:07 AM 61.0140 -0.0570 298° West 441 507 38,000  Level FlightAware ADS-B
Fri 08:18:57 AM 61.0540 -0.2150 298° West 441 507 38,000  Level FlightAware ADS-B
Fri 08:19:37 AM 61.0870 -0.3420 298° West 441 507 38,000  Level FlightAware ADS-B
Fri 08:20:17 AM 61.1190 -0.4680 298° West 441 507 38,000  Level FlightAware ADS-B
Fri 08:20:57 AM 61.1520 -0.5950 298° West 441 507 38,000  Level FlightAware ADS-B
Fri 08:21:37 AM 61.1850 -0.7220 298° West 441 507 38,000  Level FlightAware ADS-B
Fri 08:22:17 AM 61.2170 -0.8500 297° West 441 507 38,000  Level FlightAware ADS-B
Fri 08:23:07 AM 61.2580 -1.0090 298° West 441 507 38,000  Level FlightAware ADS-B
Fri 08:23:47 AM 61.2900 -1.1360 298° West 441 507 38,000  Level FlightAware ADS-B
Fri 08:24:02 AM 61.2060 -1.5320 246° West 38,000  Level FlightAware ADS-B
Fri 08:26:00 AM 61.2397 -1.9985 279° West  Level Estimated
Fri 08:27:00 AM 61.2561 -2.2360 278° West  Level Estimated
Fri 08:28:00 AM 61.2722 -2.4739 278° West  Level Estimated
Fri 08:29:00 AM 61.2879 -2.7119 278° West  Level Estimated
Fri 08:30:00 AM 61.3031 -2.9502 278° West  Level Estimated
Fri 08:31:00 AM 61.3180 -3.1887 277° West  Level Estimated
Fri 08:32:00 AM 61.3324 -3.4275 277° West  Level Estimated
Fri 08:32:12 AM 61.4430 -3.5130 277° West 438 504 38,000  Level FlightAware ADS-B
Fri 08:32:52 AM 61.4580 -3.6530 283° West 438 504 38,000  Level FlightAware ADS-B
Fri 08:33:37 AM 61.4820 -3.8630 284° West 437 503 38,000  Level FlightAware ADS-B
Fri 08:34:12 AM 61.4970 -4.0070 282° West 438 504 38,000  Level FlightAware ADS-B
Fri 08:34:57 AM 61.5140 -4.1770 282° West 438 504 38,000  Level FlightAware ADS-B
Fri 08:35:37 AM 61.5290 -4.3180 283° West 438 504 38,000  Level FlightAware ADS-B
Fri 08:36:17 AM 61.5430 -4.4590 282° West 438 504 38,000  Level FlightAware ADS-B
Fri 08:37:07 AM 61.5610 -4.6360 282° West 438 504 38,000  Level FlightAware ADS-B
Fri 08:37:47 AM 61.5750 -4.7780 282° West 438 504 38,000  Level FlightAware ADS-B
Fri 08:38:27 AM 61.5890 -4.9190 282° West 438 504 38,000  Level FlightAware ADS-B
Fri 08:39:22 AM 61.6290 -5.3010 283° West 436 502 38,000  Level FlightAware ADS-B
Fri 08:40:27 AM 61.6570 -5.5840 282° West 440 506 38,000  Level FlightAware ADS-B
Fri 08:41:22 AM 61.6770 -5.7980 281° West 440 506 38,000  Level FlightAware ADS-B
Fri 08:42:02 AM 61.6940 -5.9850 281° West 435 501 38,000  Level FlightAware ADS-B
Fri 08:42:47 AM 61.7090 -6.1530 281° West 432 497 38,000  Level FlightAware ADS-B
Fri 08:43:27 AM 61.7240 -6.3250 281° West 432 497 38,000  Level FlightAware ADS-B
Fri 08:44:07 AM 61.7400 -6.4950 281° West 432 497 38,000  Level FlightAware ADS-B
Fri 08:44:52 AM 61.7560 -6.6800 280° West 435 501 38,000  Level FlightAware ADS-B
Fri 08:45:32 AM 61.7690 -6.8330 280° West 436 502 38,000  Level FlightAware ADS-B
Fri 08:46:12 AM 61.7850 -7.0180 280° West 429 494 38,000  Level FlightAware ADS-B
Fri 08:46:57 AM 61.8000 -7.2010 280° West 428 493 38,000  Level FlightAware ADS-B
Fri 08:47:42 AM 61.8150 -7.3910 280° West 429 494 38,000  Level FlightAware ADS-B
Fri 08:48:22 AM 61.8290 -7.5580 280° West 432 497 38,000  Level FlightAware ADS-B
Fri 08:49:02 AM 61.8420 -7.7220 280° West 433 498 38,000  Level FlightAware ADS-B
Fri 08:49:47 AM 61.8560 -7.9110 279° West 432 497 38,000  Level FlightAware ADS-B
Fri 08:50:27 AM 61.8690 -8.0730 280° West 430 495 38,000  Level FlightAware ADS-B
Fri 08:51:12 AM 61.8810 -8.2390 279° West 430 495 38,000  Level FlightAware ADS-B
Fri 08:51:52 AM 61.8920 -8.3810 279° West 430 495 38,000  Level FlightAware ADS-B
Fri 08:52:32 AM 61.9070 -8.5910 279° West 428 493 38,000  Level FlightAware ADS-B
Fri 08:53:17 AM 61.9200 -8.7810 278° West 429 494 38,000  Level FlightAware ADS-B
Fri 08:54:07 AM 61.9330 -8.9750 278° West 429 494 38,000  Level FlightAware ADS-B
Fri 08:54:47 AM 61.9430 -9.1170 279° West 429 494 38,000  Level FlightAware ADS-B
Fri 08:55:37 AM 61.9590 -9.3450 279° West 427 491 38,000  Level FlightAware ADS-B
Fri 08:56:17 AM 61.9700 -9.5270 277° West 433 498 38,000  Level FlightAware ADS-B
Fri 08:56:57 AM 61.9810 -9.6930 278° West 434 499 38,000  Level FlightAware ADS-B
Fri 08:57:42 AM 61.9930 -9.8780 278° West 430 495 38,000  Level FlightAware ADS-B
Fri 08:58:22 AM 62.0030 -10.0460 277° West 429 494 38,000  Level FlightAware ADS-B
Fri 08:59:07 AM 62.0090 -10.2380 274° West 424 488 38,000  Level FlightAware ADS-B
Fri 08:59:42 AM 62.0140 -10.3870 274° West 423 487 38,000  Level FlightAware ADS-B
Fri 09:00:32 AM 62.0200 -10.5940 274° West 421 484 38,000  Level FlightAware ADS-B
Fri 09:01:12 AM 62.0260 -10.7600 274° West 418 481 38,000  Level FlightAware ADS-B
Fri 09:01:52 AM 62.0310 -10.9240 274° West 420 483 38,000  Level FlightAware ADS-B
Fri 09:02:37 AM 62.0360 -11.1070 273° West 419 482 38,000  Level FlightAware ADS-B
Fri 09:03:17 AM 62.0400 -11.2690 273° West 417 480 38,000  Level FlightAware ADS-B
Fri 09:03:57 AM 62.0450 -11.4330 274° West 418 481 38,000  Level FlightAware ADS-B
Fri 09:04:42 AM 62.0490 -11.6220 273° West 420 483 38,000  Level FlightAware ADS-B
Fri 09:05:22 AM 62.0530 -11.7880 273° West 419 482 38,000  Level FlightAware ADS-B
Fri 09:06:07 AM 62.0580 -11.9690 273° West 420 483 38,000  Level FlightAware ADS-B
Fri 09:06:47 AM 62.0610 -12.1330 272° West 421 484 38,000  Level FlightAware ADS-B
Fri 09:07:27 AM 62.0640 -12.3000 272° West 422 486 38,000  Level FlightAware ADS-B
Fri 09:08:12 AM 62.0680 -12.4900 273° West 424 488 38,000  Level FlightAware ADS-B
Fri 09:08:52 AM 62.0710 -12.6510 272° West 425 489 38,000  Level FlightAware ADS-B
Fri 09:09:37 AM 62.0740 -12.8400 272° West 426 490 38,000  Level FlightAware ADS-B
Fri 09:10:17 AM 62.0760 -13.0070 272° West 426 490 38,000  Level FlightAware ADS-B
Fri 09:11:02 AM 62.0790 -13.1990 272° West 427 491 38,000  Level FlightAware ADS-B
Fri 09:11:42 AM 62.0810 -13.3620 272° West 427 491 38,000  Level FlightAware ADS-B
Fri 09:12:22 AM 62.0830 -13.5340 271° West 426 490 38,000  Level FlightAware ADS-B
Fri 09:13:07 AM 62.0850 -13.7190 271° West 424 488 38,000  Level FlightAware ADS-B
Fri 09:13:47 AM 62.0860 -13.8880 271° West 421 484 38,000  Level FlightAware ADS-B
Fri 09:14:32 AM 62.0880 -14.0740 271° West 421 484 38,000  Level FlightAware ADS-B
Fri 09:15:12 AM 62.0890 -14.2430 271° West 423 487 38,000  Level FlightAware ADS-B
Fri 09:15:52 AM 62.0890 -14.4090 270° West 423 487 38,000  Level FlightAware ADS-B
Fri 09:16:37 AM 62.0900 -14.5920 271° West 421 484 38,000  Level FlightAware ADS-B
Fri 09:17:12 AM 62.0900 -14.7400 270° West 421 484 38,000  Level FlightAware ADS-B
Fri 09:18:02 AM 62.0910 -14.9440 271° West 419 482 38,000  Level FlightAware ADS-B
Fri 09:18:32 AM 62.0910 -15.0540 270° West 419 482 38,000  Level FlightAware ADS-B
Fri 09:19:22 AM 62.0910 -15.2300 270° West 419 482 38,000  Level FlightAware ADS-B
Fri 09:20:07 AM 62.0900 -15.4530 270° West 416 479 38,000  Level FlightAware ADS-B
Fri 09:20:42 AM 62.0890 -15.6020 269° West 416 479 38,000  Level FlightAware ADS-B
Fri 09:21:27 AM 62.0880 -15.7830 269° West 416 479 38,000  Level FlightAware ADS-B
Fri 09:22:12 AM 62.0870 -15.9700 269° West 418 481 38,000  Level FlightAware ADS-B
Fri 09:22:52 AM 62.0860 -16.1290 269° West 420 483 38,000  Level FlightAware ADS-B
Fri 09:23:37 AM 62.0840 -16.3160 269° West 422 486 38,000  Level FlightAware ADS-B
Fri 09:24:17 AM 62.0830 -16.4830 269° West 422 486 38,000  Level FlightAware ADS-B
Fri 09:25:02 AM 62.0810 -16.6660 269° West 423 487 38,000  Level FlightAware ADS-B
Fri 09:25:42 AM 62.0790 -16.8330 269° West 425 489 38,000  Level FlightAware ADS-B
Fri 09:26:12 AM 62.0770 -16.9590 268° West 426 490 38,000  Level FlightAware ADS-B
Fri 09:26:52 AM 62.0740 -17.1270 268° West 429 494 38,000  Level FlightAware ADS-B
Fri 09:27:32 AM 62.0720 -17.3020 269° West 432 497 38,000  Level FlightAware ADS-B
Fri 09:28:17 AM 62.0680 -17.4910 267° West 431 496 38,000  Level FlightAware ADS-B
Fri 09:28:57 AM 62.0650 -17.6570 268° West 431 496 38,000  Level FlightAware ADS-B
Fri 09:29:37 AM 62.0620 -17.8280 268° West 434 499 38,000  Level FlightAware ADS-B
Fri 09:30:22 AM 62.0580 -18.0270 268° West 437 503 38,000  Level FlightAware ADS-B
Fri 09:31:02 AM 62.0540 -18.1890 267° West 436 502 38,000  Level FlightAware ADS-B
Fri 09:31:47 AM 62.0490 -18.3840 267° West 432 497 38,000  Level FlightAware ADS-B
Fri 09:32:27 AM 62.0450 -18.5550 267° West 431 496 38,000  Level FlightAware ADS-B
Fri 09:33:07 AM 62.0410 -18.7220 267° West 429 494 38,000  Level FlightAware ADS-B
Fri 09:33:52 AM 62.0350 -18.9160 266° West 429 494 38,000  Level FlightAware ADS-B
Fri 09:34:32 AM 62.0300 -19.0840 266° West 428 493 38,000  Level FlightAware ADS-B
Fri 09:35:07 AM 62.0260 -19.2280 267° West 428 493 38,000  Level FlightAware ADS-B
Fri 09:35:37 AM 62.0220 -19.3540 266° West 427 491 38,000  Level FlightAware ADS-B
Fri 09:36:17 AM 62.0170 -19.5170 266° West 427 491 38,000  Level FlightAware ADS-B
Fri 09:37:02 AM 62.0100 -19.7120 266° West 428 493 38,000  Level FlightAware ADS-B
Fri 09:37:42 AM 62.0050 -19.8740 266° West 428 493 38,000  Level FlightAware ADS-B
Fri 09:38:22 AM 62.0020 -20.0470 268° West 432 497 38,000  Level FlightAware ADS-B
Fri 09:38:57 AM 62.0070 -20.1910 274° West 434 499 38,000  Level FlightAware ADS-B
Fri 09:39:47 AM 62.0140 -20.4050 274° West 433 498 38,000  Level FlightAware ADS-B
Fri 09:40:27 AM 62.0200 -20.5750 274° West 433 498 38,000  Level FlightAware ADS-B
Fri 09:41:12 AM 62.0260 -20.7620 274° West 434 499 38,000  Level FlightAware ADS-B
Fri 09:41:52 AM 62.0310 -20.9400 274° West 436 502 38,000  Level FlightAware ADS-B
Fri 09:42:37 AM 62.0360 -21.1310 273° West 440 506 38,000  Level FlightAware ADS-B
Fri 09:43:17 AM 62.0410 -21.3030 274° West 442 509 38,000  Level FlightAware ADS-B
Fri 09:43:57 AM 62.0460 -21.4760 274° West 442 509 38,000  Level FlightAware ADS-B
Fri 09:44:42 AM 62.0510 -21.6740 273° West 440 506 38,000  Level FlightAware ADS-B
Fri 09:45:22 AM 62.0550 -21.8470 273° West 439 505 38,000  Level FlightAware ADS-B
Fri 09:46:07 AM 62.0590 -22.0350 273° West 438 504 38,000  Level FlightAware ADS-B
Fri 09:46:47 AM 62.0620 -22.2070 272° West 437 503 38,000  Level FlightAware ADS-B
Fri 09:47:27 AM 62.0660 -22.3790 273° West 438 504 38,000  Level FlightAware ADS-B
Fri 09:48:12 AM 62.0690 -22.5780 272° West 440 506 38,000  Level FlightAware ADS-B
Fri 09:48:52 AM 62.0720 -22.7510 272° West 441 507 38,000  Level FlightAware ADS-B
Fri 09:49:37 AM 62.0750 -22.9430 272° West 443 510 38,000  Level FlightAware ADS-B
Fri 09:50:17 AM 62.0780 -23.1130 272° West 443 510 38,000  Level FlightAware ADS-B
Fri 09:51:07 AM 62.0800 -23.3220 271° West 443 510 38,000  Level FlightAware ADS-B
Fri 09:51:57 AM 62.0830 -23.5500 272° West 445 512 38,000  Level FlightAware ADS-B
Fri 09:52:37 AM 62.0850 -23.7300 271° West 447 514 38,000  Level FlightAware ADS-B
Fri 09:53:17 AM 62.0860 -23.9020 271° West 446 513 38,000  Level FlightAware ADS-B
Fri 09:54:02 AM 62.0880 -24.1040 271° West 445 512 38,000  Level FlightAware ADS-B
Fri 09:54:42 AM 62.0890 -24.2730 271° West 445 512 38,000  Level FlightAware ADS-B
Fri 09:55:27 AM 62.0900 -24.4740 271° West 447 514 38,000  Level FlightAware ADS-B
Fri 09:56:07 AM 62.0900 -24.6400 270° West 449 517 38,000  Level FlightAware ADS-B
Fri 09:56:47 AM 62.0900 -24.8040 270° West 449 517 38,000  Level FlightAware ADS-B
Fri 09:57:27 AM 62.0900 -24.9550 270° West 449 517 38,000  Level FlightAware ADS-B
Fri 09:58:07 AM 62.0900 -25.1060 270° West 449 517 38,000  Level FlightAware ADS-B
Fri 09:58:57 AM 62.0900 -25.4050 270° West 452 520 38,000  Level FlightAware ADS-B
Fri 09:59:37 AM 62.0890 -25.5810 269° West 455 524 38,000  Level FlightAware ADS-B
Fri 10:00:22 AM 62.0890 -25.7810 270° West 457 526 38,000  Level FlightAware ADS-B
Fri 10:01:02 AM 62.0870 -25.9580 269° West 458 527 38,000  Level FlightAware ADS-B
Fri 10:01:42 AM 62.0860 -26.1390 269° West 457 526 38,000  Level FlightAware ADS-B
Fri 10:02:22 AM 62.0850 -26.3040 269° West 458 527 38,000  Level FlightAware ADS-B
Fri 10:03:07 AM 62.0810 -26.4920 267° West 458 527 38,000  Level FlightAware ADS-B
Fri 10:03:47 AM 62.0790 -26.6460 268° West 458 527 38,000  Level FlightAware ADS-B
Fri 10:04:32 AM 62.0780 -26.9080 270° West 462 532 38,000  Level FlightAware ADS-B
Fri 10:05:12 AM 62.0750 -27.0890 268° West 461 531 38,000  Level FlightAware ADS-B
Fri 10:05:57 AM 62.0720 -27.2970 268° West 459 528 38,000  Level FlightAware ADS-B
Fri 10:06:37 AM 62.0690 -27.4750 268° West 460 529 38,000  Level FlightAware ADS-B
Fri 10:07:17 AM 62.0650 -27.6540 267° West 460 529 38,000  Level FlightAware ADS-B
Fri 10:08:02 AM 62.0610 -27.8650 268° West 460 529 38,000  Level FlightAware ADS-B
Fri 10:08:52 AM 62.0560 -28.0680 267° West 461 531 38,000  Level FlightAware ADS-B
Fri 10:09:32 AM 62.0530 -28.2230 268° West 461 531 38,000  Level FlightAware ADS-B
Fri 10:10:22 AM 62.0480 -28.4160 267° West 461 531 38,000  Level FlightAware ADS-B
Fri 10:11:02 AM 62.0440 -28.5710 267° West 461 531 38,000  Level FlightAware ADS-B
Fri 10:11:42 AM 62.0400 -28.7250 267° West 461 531 38,000  Level FlightAware ADS-B
Fri 10:12:22 AM 62.0360 -28.8790 267° West 461 531 38,000  Level FlightAware ADS-B
Fri 10:13:02 AM 62.0320 -29.0340 267° West 461 531 38,000  Level FlightAware ADS-B
Fri 10:13:52 AM 62.0280 -29.2270 268° West 461 531 38,000  Level FlightAware ADS-B
Fri 10:14:32 AM 62.0240 -29.3810 267° West 461 531 38,000  Level FlightAware ADS-B
Fri 10:15:12 AM 62.0200 -29.5360 267° West 461 531 38,000  Level FlightAware ADS-B
Fri 10:15:52 AM 62.0160 -29.6900 267° West 461 531 38,000  Level FlightAware ADS-B
Fri 10:16:32 AM 62.0120 -29.8440 267° West 461 531 38,000  Level FlightAware ADS-B
Fri 10:17:22 AM 62.0080 -30.0370 268° West 461 531 38,000  Level FlightAware ADS-B
Fri 10:18:02 AM 62.0040 -30.1910 267° West 461 531 38,000  Level FlightAware ADS-B
Fri 10:20:00 AM 61.9215 -30.6443 249° West  Level FlightAware Approximate
Fri 10:21:00 AM 61.8790 -30.8738 249° West  Level FlightAware Approximate
Fri 10:22:00 AM 61.8362 -31.1027 248° West  Level FlightAware Approximate
Fri 10:23:00 AM 61.7929 -31.3309 248° West  Level FlightAware Approximate
Fri 10:24:00 AM 61.7492 -31.5585 248° West  Level FlightAware Approximate
Fri 10:25:00 AM 61.7052 -31.7855 248° West  Level FlightAware Approximate
Fri 10:26:00 AM 61.6608 -32.0118 248° West  Level FlightAware Approximate
Fri 10:27:00 AM 61.6210 -32.2420 251° West  Level FlightAware Approximate
Fri 10:28:00 AM 61.5825 -32.4724 251° West  Level FlightAware Approximate
Fri 10:29:00 AM 61.5436 -32.7023 251° West  Level FlightAware Approximate
Fri 10:30:00 AM 61.5043 -32.9316 250° West  Level FlightAware Approximate
Fri 10:31:00 AM 61.4647 -33.1603 250° West  Level FlightAware Approximate
Fri 10:32:00 AM 61.4246 -33.3884 250° West  Level FlightAware Approximate
Fri 10:33:00 AM 61.3830 -33.6150 249° West  Level FlightAware Approximate
Fri 10:34:00 AM 61.3407 -33.8407 249° West  Level FlightAware Approximate
Fri 10:35:00 AM 61.2981 -34.0659 249° West  Level FlightAware Approximate
Fri 10:36:00 AM 61.2551 -34.2904 248° West  Level FlightAware Approximate
Fri 10:37:00 AM 61.2117 -34.5143 248° West  Level FlightAware Approximate
Fri 10:38:00 AM 61.1679 -34.7376 248° West  Level FlightAware Approximate
Fri 10:39:00 AM 61.1238 -34.9603 248° West  Level FlightAware Approximate
Fri 10:39:41 AM 60.9333 -35.7167 247° West 470 541 38,000  Level Gander Center
Fri 10:40:00 AM 61.0793 -35.1823 248° West  Level FlightAware Approximate
Fri 10:40:41 AM 60.8833 -35.9333 245° Southwest 470 541 38,000  Level Gander Center
Fri 10:41:00 AM 61.0344 -35.4037 247° West  Level FlightAware Approximate
Fri 10:41:41 AM 60.8333 -36.2000 249° West 470 541 38,000  Level Gander Center
Fri 10:42:00 AM 60.9892 -35.6245 247° West  Level FlightAware Approximate
Fri 10:42:41 AM 60.7833 -36.4500 248° West 470 541 38,000  Level Gander Center
Fri 10:43:00 AM 60.9436 -35.8447 247° West  Level FlightAware Approximate
Fri 10:43:41 AM 60.7500 -36.6667 253° West 470 541 38,000  Level Gander Center
Fri 10:44:00 AM 60.8977 -36.0642 247° West  Level FlightAware Approximate
Fri 10:44:41 AM 60.6833 -36.9333 243° Southwest 460 529 38,000  Level Gander Center
Fri 10:45:00 AM 60.8514 -36.2831 247° West  Level FlightAware Approximate
Fri 10:45:41 AM 60.6333 -37.1333 243° Southwest 460 529 38,000  Level Gander Center
Fri 10:46:41 AM 60.5833 -37.4000 249° West 460 529 38,000  Level Gander Center
Fri 10:47:41 AM 60.5333 -37.6167 245° Southwest 460 529 38,000  Level Gander Center
Fri 10:48:41 AM 60.4667 -37.8667 242° Southwest 460 529 38,000  Level Gander Center
Fri 10:49:41 AM 60.4167 -38.0833 245° Southwest 460 529 38,000  Level Gander Center
Fri 10:50:41 AM 60.3667 -38.3167 247° West 460 529 38,000  Level Gander Center
Fri 10:51:41 AM 60.3000 -38.5500 240° Southwest 460 529 38,000  Level Gander Center
Fri 10:52:41 AM 60.2667 -38.7833 254° West 460 529 38,000  Level Gander Center
Fri 10:53:41 AM 60.2167 -39.0000 245° Southwest 460 529 38,000  Level Gander Center
Fri 10:54:41 AM 60.1500 -39.2500 242° Southwest 460 529 38,000  Level Gander Center
Fri 10:55:41 AM 60.1000 -39.4500 243° Southwest 460 529 38,000  Level Gander Center
Fri 10:56:41 AM 60.0500 -39.7000 248° West 460 529 38,000  Level Gander Center
Fri 10:57:41 AM 59.9833 -39.9167 238° Southwest 460 529 38,000  Level Gander Center
Fri 10:58:41 AM 59.9167 -40.1333 239° Southwest 460 529 38,000  Level Gander Center
Fri 10:59:41 AM 59.8333 -40.3500 233° Southwest 460 529 38,000  Level Gander Center
Fri 11:00:41 AM 59.7667 -40.5500 237° Southwest 460 529 38,000  Level Gander Center
Fri 11:01:41 AM 59.7000 -40.7667 239° Southwest 460 529 38,000  Level Gander Center
Fri 11:02:41 AM 59.6333 -40.9500 234° Southwest 460 529 38,000  Level Gander Center
Fri 11:03:41 AM 59.5667 -41.1500 237° Southwest 460 529 38,000  Level Gander Center
Fri 11:04:41 AM 59.5000 -41.3667 239° Southwest 460 529 38,000  Level Gander Center
Fri 11:05:41 AM 59.4333 -41.5833 239° Southwest 460 529 38,000  Level Gander Center
Fri 11:06:41 AM 59.3500 -41.7833 231° Southwest 450 518 38,000  Level Gander Center
Fri 11:07:41 AM 59.2833 -42.0000 239° Southwest 460 529 38,000  Level Gander Center
Fri 11:08:41 AM 59.2167 -42.2000 237° Southwest 460 529 38,000 400 Level Gander Center
Fri 11:09:41 AM 59.1333 -42.4167 233° Southwest 460 529 38,800 900 Climbing Gander Center
Fri 11:10:41 AM 59.0833 -42.5833 240° Southwest 450 518 39,800 600 Climbing Gander Center
Fri 11:11:41 AM 59.0000 -42.7833 231° Southwest 450 518 40,000 100 Climbing Gander Center
Fri 11:12:41 AM 58.9333 -42.9833 237° Southwest 450 518 40,000  Level Gander Center
Fri 11:13:41 AM 58.8500 -43.2000 233° Southwest 450 518 40,000  Level Gander Center
Fri 11:14:41 AM 58.8000 -43.3833 242° Southwest 450 518 40,000  Level Gander Center
Fri 11:15:41 AM 58.7167 -43.5667 229° Southwest 450 518 40,000  Level Gander Center
Fri 11:16:41 AM 58.6333 -43.7667 231° Southwest 450 518 40,000  Level Gander Center
Fri 11:17:41 AM 58.5667 -43.9667 237° Southwest 440 506 40,000  Level Gander Center
Fri 11:18:41 AM 58.5000 -44.1167 230° Southwest 440 506 40,000  Level Gander Center
Fri 11:19:41 AM 58.4333 -44.3167 238° Southwest 440 506 40,000  Level Gander Center
Fri 11:20:41 AM 58.3500 -44.5167 232° Southwest 440 506 40,000  Level Gander Center
Fri 11:21:41 AM 58.2833 -44.6833 233° Southwest 440 506 40,000  Level Gander Center
Fri 11:22:41 AM 58.2000 -44.8833 232° Southwest 440 506 40,000  Level Gander Center
Fri 11:23:41 AM 58.1500 -45.0667 243° Southwest 440 506 40,000  Level Gander Center
Fri 11:24:41 AM 58.0667 -45.2667 232° Southwest 440 506 40,000  Level Gander Center
Fri 11:25:41 AM 57.9833 -45.4333 227° Southwest 440 506 40,000  Level Gander Center
Fri 11:26:41 AM 57.9167 -45.6167 236° Southwest 440 506 40,000  Level Gander Center
Fri 11:27:41 AM 57.8500 -45.8000 236° Southwest 440 506 40,000  Level Gander Center
Fri 11:28:41 AM 57.7667 -45.9667 227° Southwest 440 506 40,000  Level Gander Center
Fri 11:29:41 AM 57.7000 -46.1500 236° Southwest 440 506 40,000  Level Gander Center
Fri 11:30:41 AM 57.6167 -46.3500 232° Southwest 440 506 40,000  Level Gander Center
Fri 11:31:41 AM 57.5333 -46.5333 230° Southwest 440 506 40,000  Level Gander Center
Fri 11:32:41 AM 57.4500 -46.7000 227° Southwest 440 506 40,000  Level Gander Center
Fri 11:33:41 AM 57.4000 -46.8833 243° Southwest 440 506 40,000  Level Gander Center
Fri 11:34:41 AM 57.3167 -47.0667 230° Southwest 440 506 40,000  Level Gander Center
Fri 11:35:41 AM 57.2333 -47.2167 224° Southwest 440 506 40,000  Level Gander Center
Fri 11:36:41 AM 57.1667 -47.4000 236° Southwest 440 506 40,000  Level Gander Center
Fri 11:37:41 AM 57.0833 -47.5833 230° Southwest 440 506 40,000  Level Gander Center
Fri 11:38:41 AM 57.0167 -47.7333 231° Southwest 440 506 40,000  Level Gander Center
Fri 11:39:41 AM 56.9333 -47.9167 230° Southwest 440 506 40,000  Level Gander Center
Fri 11:40:41 AM 56.8500 -48.1000 230° Southwest 440 506 40,000  Level Gander Center
Fri 11:41:41 AM 56.7833 -48.2500 231° Southwest 440 506 40,000  Level Gander Center
Fri 11:42:41 AM 56.7000 -48.4333 230° Southwest 440 506 40,000  Level Gander Center
Fri 11:43:41 AM 56.6333 -48.6167 237° Southwest 440 506 40,000  Level Gander Center
Fri 11:44:41 AM 56.5500 -48.7667 225° Southwest 440 506 40,000  Level Gander Center
Fri 11:45:41 AM 56.4667 -48.9333 228° Southwest 440 506 40,000  Level Gander Center
Fri 11:47:00 AM 56.3682 -49.1624 232° Southwest  Level FlightAware Approximate
Fri 11:54:00 AM 55.8019 -50.2993 220° Southwest  Level FlightAware Approximate
Fri 11:55:00 AM 55.7086 -50.4388 220° Southwest  Level FlightAware Approximate
Fri 11:56:00 AM 55.6153 -50.5775 220° Southwest  Level FlightAware Approximate
Fri 11:57:00 AM 55.5262 -50.7091 220° Southwest  Level FlightAware Approximate
Fri 11:58:00 AM 55.4370 -50.8400 220° Southwest  Level FlightAware Approximate
Fri 11:59:00 AM 55.3476 -50.9704 220° Southwest  Level FlightAware Approximate
Fri 12:00:00 PM 55.2581 -51.1001 220° Southwest  Level FlightAware Approximate
Fri 12:01:00 PM 55.1685 -51.2293 219° Southwest  Level FlightAware Approximate
Fri 12:02:00 PM 55.0787 -51.3579 219° Southwest  Level FlightAware Approximate
Fri 12:03:00 PM 54.9888 -51.4860 219° Southwest  Level FlightAware Approximate
Fri 12:04:00 PM 54.8987 -51.6134 219° Southwest  Level FlightAware Approximate
Fri 12:05:00 PM 54.8086 -51.7403 219° Southwest  Level FlightAware Approximate
Fri 12:06:00 PM 54.7183 -51.8666 219° Southwest  Level FlightAware Approximate
Fri 12:07:00 PM 54.6278 -51.9924 219° Southwest  Level FlightAware Approximate
Fri 12:08:00 PM 54.5373 -52.1178 219° Southwest  Level FlightAware Approximate
Fri 12:09:00 PM 54.4473 -52.2438 219° Southwest  Level FlightAware Approximate
Fri 12:10:00 PM 54.3571 -52.3692 219° Southwest  Level FlightAware Approximate
Fri 12:11:00 PM 54.2668 -52.4941 219° Southwest  Level FlightAware Approximate
Fri 12:12:00 PM 54.1763 -52.6185 219° Southwest  Level FlightAware Approximate
Fri 12:13:00 PM 54.0858 -52.7423 219° Southwest  Level FlightAware Approximate
Fri 12:14:00 PM 53.9950 -52.8655 219° Southwest  Level FlightAware Approximate
Fri 12:15:00 PM 53.9042 -52.9883 219° Southwest  Level FlightAware Approximate
Fri 12:16:00 PM 53.8133 -53.1105 218° Southwest  Level FlightAware Approximate
Fri 12:16:25 PM 53.6833 -53.2333 218° Southwest 410 472 40,000  Level Gander Center
Fri 12:17:00 PM 53.7222 -53.2321 218° Southwest  Level FlightAware Approximate
Fri 12:17:25 PM 53.5833 -53.3500 215° Southwest 410 472 40,000  Level Gander Center
Fri 12:18:00 PM 53.6310 -53.3533 218° Southwest  Level FlightAware Approximate
Fri 12:18:25 PM 53.5167 -53.4500 222° Southwest 410 472 40,000  Level Gander Center
Fri 12:19:00 PM 53.5397 -53.4739 218° Southwest  Level FlightAware Approximate
Fri 12:19:25 PM 53.4167 -53.5833 218° Southwest 410 472 40,000  Level Gander Center
Fri 12:20:00 PM 53.4482 -53.5940 218° Southwest  Level FlightAware Approximate
Fri 12:20:25 PM 53.3333 -53.7167 224° Southwest 410 472 40,000  Level Gander Center
Fri 12:21:00 PM 53.3567 -53.7136 218° Southwest  Level FlightAware Approximate
Fri 12:21:25 PM 53.2333 -53.8500 219° Southwest 420 483 40,000  Level Gander Center
Fri 12:22:25 PM 53.1333 -53.9500 211° Southwest 420 483 40,000  Level Gander Center
Fri 12:23:25 PM 53.0667 -54.1000 234° Southwest 420 483 40,000  Level Gander Center
Fri 12:24:25 PM 53.0000 -54.2667 236° Southwest 400 460 40,000  Level Gander Center
Fri 12:25:25 PM 52.9500 -54.4167 241° Southwest 390 449 40,000 -750 Level Gander Center
Fri 12:26:25 PM 52.8833 -54.5667 234° Southwest 410 472 38,500 -1,000 Descending Gander Center
Fri 12:27:25 PM 52.8167 -54.7167 234° Southwest 410 472 38,000 -250 Descending Gander Center
Fri 12:28:25 PM 52.7333 -54.8500 224° Southwest 400 460 38,000  Level Gander Center
Fri 12:29:25 PM 52.6667 -54.9833 231° Southwest 400 460 38,000  Level Gander Center
Fri 12:30:25 PM 52.5833 -55.1167 224° Southwest 400 460 38,000  Level Gander Center
Fri 12:31:25 PM 52.5333 -55.2667 241° Southwest 400 460 38,000  Level Gander Center
Fri 12:32:25 PM 52.4500 -55.4000 224° Southwest 390 449 38,000  Level Gander Center
Fri 12:33:25 PM 52.3667 -55.5333 224° Southwest 400 460 38,000  Level Gander Center
Fri 12:33:47 PM 52.3500 -55.5500 211° Southwest 400 460 38,000  Level Gander Center
Fri 12:34:47 PM 52.2667 -55.7000 228° Southwest 400 460 38,000  Level Gander Center
Fri 12:35:25 PM 52.2167 -55.8000 231° Southwest 390 449 38,000  Level Gander Center
Fri 12:36:25 PM 52.1500 -55.9167 227° Southwest 400 460 38,000  Level Gander Center
Fri 12:36:47 PM 52.1167 -55.9667 223° Southwest 400 460 38,000  Level Gander Center
Fri 12:37:47 PM 52.0500 -56.1167 234° Southwest 390 449 38,000  Level Gander Center
Fri 12:38:25 PM 52.0000 -56.2000 226° Southwest 400 460 38,000  Level Gander Center
Fri 12:39:25 PM 51.9167 -56.3167 221° Southwest 400 460 38,000  Level Gander Center
Fri 12:40:25 PM 51.8667 -56.4667 242° Southwest 390 449 38,000  Level Gander Center
Fri 12:41:25 PM 51.7833 -56.5833 221° Southwest 400 460 38,000  Level Gander Center
Fri 12:42:25 PM 51.7000 -56.7167 225° Southwest 400 460 38,000  Level Gander Center
Fri 12:43:25 PM 51.6167 -56.8667 228° Southwest 420 483 38,000  Level Gander Center
Fri 12:43:47 PM 51.6000 -56.9000 231° Southwest 420 483 38,000  Level Gander Center
Fri 12:44:27 PM 51.5500 -56.9833 226° Southwest 400 460 38,000  Level Moncton Center
Fri 12:45:27 PM 51.4667 -57.1167 225° Southwest 400 460 38,000  Level Moncton Center
Fri 12:45:47 PM 51.4500 -57.1500 231° Southwest 400 460 38,000  Level Gander Center
Fri 12:46:47 PM 51.3667 -57.2833 225° Southwest 410 472 38,000  Level Gander Center
Fri 12:47:25 PM 51.3167 -57.3667 226° Southwest 400 460 38,000  Level Gander Center
Fri 12:48:25 PM 51.2500 -57.5167 235° Southwest 400 460 38,000  Level Gander Center
Fri 12:49:25 PM 51.1667 -57.6333 221° Southwest 400 460 38,000  Level Gander Center
Fri 12:50:47 PM 51.0500 -57.8167 225° Southwest 410 472 38,000  Level Gander Center
Fri 12:51:25 PM 51.0000 -57.9000 226° Southwest 400 460 38,000  Level Gander Center
Fri 12:52:25 PM 50.9500 -58.0167 236° Southwest 410 472 38,000  Level Gander Center
Fri 12:53:25 PM 50.8667 -58.1833 232° Southwest 400 460 38,000  Level Gander Center
Fri 12:54:25 PM 50.8000 -58.3167 232° Southwest 400 460 38,000  Level Gander Center
Fri 12:55:25 PM 50.7333 -58.4500 232° Southwest 410 472 38,000  Level Gander Center
Fri 12:56:25 PM 50.6667 -58.5833 232° Southwest 400 460 38,000  Level Gander Center
Fri 12:57:25 PM 50.6167 -58.7333 242° Southwest 400 460 38,000  Level Gander Center
Fri 12:58:25 PM 50.5500 -58.8667 232° Southwest 400 460 38,000  Level Gander Center
Fri 12:59:25 PM 50.4667 -59.0000 226° Southwest 400 460 38,000  Level Gander Center
Fri 01:00:25 PM 50.4000 -59.1500 235° Southwest 400 460 38,000  Level Gander Center
Fri 01:01:25 PM 50.3333 -59.2833 232° Southwest 400 460 38,000  Level Gander Center
Fri 01:02:25 PM 50.2667 -59.4167 232° Southwest 390 449 38,000  Level Gander Center
Fri 01:03:25 PM 50.2000 -59.5500 232° Southwest 400 460 38,000  Level Gander Center
Fri 01:04:25 PM 50.1500 -59.6833 240° Southwest 390 449 38,000  Level Gander Center
Fri 01:05:25 PM 50.0667 -59.8167 226° Southwest 400 460 38,000  Level Gander Center
Fri 01:06:25 PM 50.0167 -59.9500 240° Southwest 390 449 38,000  Level Gander Center
Fri 01:07:25 PM 49.9333 -60.0833 226° Southwest 400 460 38,000  Level Gander Center
Fri 01:08:25 PM 49.8667 -60.2167 232° Southwest 400 460 38,000  Level Gander Center
Fri 01:09:25 PM 49.8000 -60.3500 232° Southwest 400 460 38,000  Level Gander Center
Fri 01:10:25 PM 49.7333 -60.5000 236° Southwest 400 460 38,000  Level Gander Center
Fri 01:11:25 PM 49.6667 -60.6333 232° Southwest 400 460 38,000  Level Gander Center
Fri 01:12:25 PM 49.5833 -60.7667 226° Southwest 400 460 38,000  Level Gander Center
Fri 01:13:25 PM 49.5333 -60.9000 240° Southwest 400 460 38,000  Level Gander Center
Fri 01:14:25 PM 49.4500 -61.0167 222° Southwest 390 449 38,000  Level Gander Center
Fri 01:15:25 PM 49.3833 -61.1500 233° Southwest 390 449 38,000  Level Gander Center
Fri 01:16:25 PM 49.3167 -61.3000 236° Southwest 400 460 38,000  Level Gander Center
Fri 01:17:25 PM 49.2333 -61.4333 226° Southwest 400 460 38,000  Level Gander Center
Fri 01:18:25 PM 49.1667 -61.5667 233° Southwest 400 460 38,000  Level Gander Center
Fri 01:19:25 PM 49.1000 -61.6833 229° Southwest 400 460 38,000  Level Gander Center
Fri 01:20:25 PM 49.0333 -61.8167 233° Southwest 400 460 38,000  Level Gander Center
Fri 01:21:25 PM 48.9500 -61.9667 230° Southwest 410 472 38,000  Level Gander Center
Fri 01:22:25 PM 48.8833 -62.1000 233° Southwest 400 460 38,000  Level Gander Center
Fri 01:23:25 PM 48.8167 -62.2167 229° Southwest 400 460 38,000  Level Gander Center
Fri 01:24:25 PM 48.7500 -62.3500 233° Southwest 420 483 38,000  Level Gander Center
Fri 01:25:25 PM 48.6833 -62.4667 229° Southwest 410 472 38,000  Level Gander Center
Fri 01:26:25 PM 48.5833 -62.6167 225° Southwest 400 460 38,000  Level Gander Center
Fri 01:27:25 PM 48.5167 -62.7500 233° Southwest 420 483 38,000  Level Gander Center
Fri 01:28:25 PM 48.4500 -62.9000 236° Southwest 420 483 38,000  Level Gander Center
Fri 01:29:25 PM 48.3667 -63.0167 223° Southwest 420 483 38,000  Level Gander Center
Fri 01:30:25 PM 48.3000 -63.1667 236° Southwest 420 483 38,000  Level Gander Center
Fri 01:31:25 PM 48.2167 -63.2833 223° Southwest 420 483 38,000  Level Gander Center
Fri 01:32:25 PM 48.1500 -63.4167 233° Southwest 420 483 38,000  Level Gander Center
Fri 01:33:25 PM 48.0500 -63.5500 222° Southwest 420 483 38,000  Level Gander Center
Fri 01:34:25 PM 47.9833 -63.6833 233° Southwest 410 472 38,000  Level Gander Center
Fri 01:35:25 PM 47.9167 -63.8167 233° Southwest 440 506 38,000  Level Gander Center
Fri 01:36:25 PM 47.8333 -63.9500 227° Southwest 430 495 38,000  Level Gander Center
Fri 01:37:25 PM 47.7667 -64.0667 230° Southwest 420 483 38,000  Level Gander Center
Fri 01:38:25 PM 47.6667 -64.2167 225° Southwest 420 483 38,000  Level Gander Center
Fri 01:39:25 PM 47.6000 -64.3500 233° Southwest 430 495 38,000  Level Gander Center
Fri 01:40:25 PM 47.5167 -64.4667 223° Southwest 430 495 38,000  Level Gander Center
Fri 01:41:25 PM 47.4500 -64.6167 237° Southwest 420 483 38,000  Level Gander Center
Fri 01:42:25 PM 47.3667 -64.7333 223° Southwest 420 483 38,000  Level Gander Center
Fri 01:43:25 PM 47.2833 -64.8833 231° Southwest 420 483 38,000  Level Gander Center
Fri 01:44:25 PM 47.2167 -65.0000 230° Southwest 430 495 38,000  Level Gander Center
Fri 01:45:25 PM 47.1333 -65.1333 227° Southwest 430 495 38,000  Level Gander Center
Fri 01:46:25 PM 47.0500 -65.2500 224° Southwest 420 483 38,000  Level Gander Center
Fri 01:47:25 PM 46.9667 -65.4000 231° Southwest 420 483 38,000  Level Gander Center
Fri 01:48:25 PM 46.9000 -65.5167 230° Southwest 410 472 38,000  Level Gander Center
Fri 01:49:25 PM 46.8167 -65.6333 224° Southwest 420 483 38,000  Level Gander Center
Fri 01:50:27 PM 46.7333 -65.7667 228° Southwest 420 483 38,000  Level Moncton Center
Fri 01:51:27 PM 46.6500 -65.8833 224° Southwest 420 483 38,000  Level Moncton Center
Fri 01:57:22 PM 46.1970 -66.6410 224° Southwest 430 495 38,000  Level FlightAware ADS-B
Fri 01:57:57 PM 46.1450 -66.7210 227° Southwest 429 494 38,000  Level FlightAware ADS-B
Fri 01:58:42 PM 46.0820 -66.8170 227° Southwest 429 494 38,000  Level FlightAware ADS-B
Fri 01:59:27 PM 46.0200 -66.9110 226° Southwest 431 496 38,000  Level FlightAware ADS-B
Fri 02:00:17 PM 45.9570 -67.0060 226° Southwest 430 495 38,000  Level FlightAware ADS-B
Fri 02:01:32 PM 45.8570 -67.1600 227° Southwest 428 493 38,000  Level FlightAware ADS-B
Fri 02:02:12 PM 45.8000 -67.2460 226° Southwest 428 493 38,000  Level FlightAware ADS-B
Fri 02:02:57 PM 45.7390 -67.3380 226° Southwest 427 491 38,000  Level FlightAware ADS-B
Fri 02:04:07 PM 45.6430 -67.4830 227° Southwest 426 490 38,000  Level FlightAware ADS-B
Fri 02:04:42 PM 45.5940 -67.5560 226° Southwest 428 493 38,000  Level FlightAware ADS-B
Fri 02:05:27 PM 45.5320 -67.6480 226° Southwest 428 493 38,000  Level FlightAware ADS-B
Fri 02:06:27 PM 45.4440 -67.7710 224° Southwest 432 497 38,000  Level FlightAware ADS-B
Fri 02:07:07 PM 45.3820 -67.8470 221° Southwest 431 496 38,000  Level FlightAware ADS-B
Fri 02:07:37 PM 45.3370 -67.9030 221° Southwest 437 503 38,000  Level FlightAware ADS-B
Fri 02:08:17 PM 45.2760 -67.9800 222° Southwest 432 497 38,000  Level FlightAware ADS-B
Fri 02:09:02 PM 45.2100 -68.0630 222° Southwest 432 497 38,000  Level FlightAware ADS-B
Fri 02:10:12 PM 45.1040 -68.1970 222° Southwest 433 498 38,000  Level FlightAware ADS-B
Fri 02:11:22 PM 44.9980 -68.3290 221° Southwest 432 497 38,000  Level FlightAware ADS-B
Fri 02:12:07 PM 44.9250 -68.4200 221° Southwest 435 501 38,000  Level FlightAware ADS-B
Fri 02:12:47 PM 44.8630 -68.4960 221° Southwest 435 501 38,000  Level FlightAware ADS-B
Fri 02:13:27 PM 44.8020 -68.5710 221° Southwest 437 503 38,000  Level FlightAware ADS-B
Fri 02:14:12 PM 44.7350 -68.6540 221° Southwest 438 504 38,000  Level FlightAware ADS-B
Fri 02:14:52 PM 44.6730 -68.7300 221° Southwest 435 501 38,000  Level FlightAware ADS-B
Fri 02:15:37 PM 44.6050 -68.8140 221° Southwest 437 503 38,000  Level FlightAware ADS-B
Fri 02:16:17 PM 44.5430 -68.8890 221° Southwest 440 506 38,000  Level FlightAware ADS-B
Fri 02:16:57 PM 44.4830 -68.9620 221° Southwest 440 506 38,000  Level FlightAware ADS-B
Fri 02:17:42 PM 44.4130 -69.0470 221° Southwest 438 504 38,000  Level FlightAware ADS-B
Fri 02:18:22 PM 44.3520 -69.1210 221° Southwest 438 504 38,000  Level FlightAware ADS-B
Fri 02:19:07 PM 44.2840 -69.2020 220° Southwest 437 503 38,000  Level FlightAware ADS-B
Fri 02:19:47 PM 44.2230 -69.2760 221° Southwest 438 504 38,000  Level FlightAware ADS-B
Fri 02:20:27 PM 44.1610 -69.3500 221° Southwest 440 506 38,000  Level FlightAware ADS-B
Fri 02:21:12 PM 44.0900 -69.4350 221° Southwest 434 499 38,000  Level FlightAware ADS-B
Fri 02:21:52 PM 44.0320 -69.5040 221° Southwest 435 501 38,000  Level FlightAware ADS-B
Fri 02:22:32 PM 43.9720 -69.5750 220° Southwest 436 502 38,000  Level FlightAware ADS-B
Fri 02:23:17 PM 43.8990 -69.6610 220° Southwest 439 505 38,000  Level FlightAware ADS-B
Fri 02:23:57 PM 43.8370 -69.7350 221° Southwest 441 507 38,000  Level FlightAware ADS-B
Fri 02:24:42 PM 43.7690 -69.8160 221° Southwest 441 507 38,000  Level FlightAware ADS-B
Fri 02:25:22 PM 43.7060 -69.8890 220° Southwest 442 509 38,000  Level FlightAware ADS-B
Fri 02:26:07 PM 43.6370 -69.9700 220° Southwest 440 506 38,000  Level FlightAware ADS-B
Fri 02:26:47 PM 43.5740 -70.0430 220° Southwest 439 505 38,000  Level FlightAware ADS-B
Fri 02:27:27 PM 43.5110 -70.1160 220° Southwest 437 503 38,000  Level FlightAware ADS-B
Fri 02:28:12 PM 43.4440 -70.1940 220° Southwest 435 501 38,000  Level FlightAware ADS-B
Fri 02:28:52 PM 43.3820 -70.2660 220° Southwest 434 499 38,000  Level FlightAware ADS-B
Fri 02:29:37 PM 43.3110 -70.3470 220° Southwest 432 497 38,000  Level FlightAware ADS-B
Fri 02:30:17 PM 43.2500 -70.4180 220° Southwest 435 501 38,000  Level FlightAware ADS-B
Fri 02:30:57 PM 43.1890 -70.4880 220° Southwest 436 502 38,000  Level FlightAware ADS-B
Fri 02:31:42 PM 43.1210 -70.5660 220° Southwest 435 501 38,000  Level FlightAware ADS-B
Fri 02:32:22 PM 43.0590 -70.6370 220° Southwest 437 503 38,000  Level FlightAware ADS-B
Fri 02:33:02 PM 42.9980 -70.7060 220° Southwest 438 504 38,000  Level FlightAware ADS-B
Fri 02:33:47 PM 42.9250 -70.7880 219° Southwest 436 502 38,000  Level FlightAware ADS-B
Fri 02:34:27 PM 42.8630 -70.8590 220° Southwest 435 501 38,000  Level FlightAware ADS-B
Fri 02:35:12 PM 42.7860 -70.9160 209° Southwest 440 506 38,000  Level FlightAware ADS-B
Fri 02:35:52 PM 42.7130 -70.9660 207° Southwest 442 509 38,000  Level FlightAware ADS-B
Fri 02:36:32 PM 42.6410 -71.0160 207° Southwest 441 507 38,000  Level FlightAware ADS-B
Fri 02:37:17 PM 42.5570 -71.0730 207° Southwest 443 510 38,000  Level FlightAware ADS-B
Fri 02:37:57 PM 42.4840 -71.1220 206° Southwest 444 511 38,000  Level FlightAware ADS-B
Fri 02:38:37 PM 42.4130 -71.1700 207° Southwest 445 512 38,000  Level FlightAware ADS-B
Fri 02:39:22 PM 42.3270 -71.2280 207° Southwest 442 509 38,000  Level FlightAware ADS-B
Fri 02:40:02 PM 42.2560 -71.2760 207° Southwest 442 509 38,000 -141 Level FlightAware ADS-B
Fri 02:40:47 PM 42.1720 -71.3320 206° Southwest 442 509 37,800 -635 Descending FlightAware ADS-B
Fri 02:41:27 PM 42.0990 -71.3810 206° Southwest 444 511 37,100 -975 Descending FlightAware ADS-B
Fri 02:42:07 PM 42.0270 -71.4290 206° Southwest 449 517 36,500 -776 Descending FlightAware ADS-B
Fri 02:42:52 PM 41.9430 -71.4850 206° Southwest 447 514 36,000 -565 Descending FlightAware ADS-B
Fri 02:43:32 PM 41.8750 -71.5300 206° Southwest 447 514 35,700 -1,482 Descending FlightAware ADS-B
Fri 02:44:17 PM 41.7840 -71.5900 206° Southwest 449 517 33,900 -2,329 Descending FlightAware ADS-B
Fri 02:44:57 PM 41.7080 -71.6410 207° Southwest 456 525 32,400 -2,250 Descending FlightAware ADS-B
Fri 02:45:37 PM 41.6330 -71.6900 206° Southwest 467 537 30,900 -2,250 Descending FlightAware ADS-B
Fri 02:46:17 PM 41.5610 -71.7370 206° Southwest 462 532 29,400 -2,259 Descending FlightAware ADS-B
Fri 02:47:02 PM 41.4760 -71.7930 206° Southwest 456 525 27,700 -2,267 Descending FlightAware ADS-B
Fri 02:47:47 PM 41.3870 -71.8510 206° Southwest 449 517 26,000 -2,118 Descending FlightAware ADS-B
Fri 02:48:27 PM 41.3120 -71.9000 206° Southwest 437 503 24,700 -1,200 Descending FlightAware ADS-B
Fri 02:49:37 PM 41.2120 -71.9990 217° Southwest 413 475 23,800 -1,714 Descending FlightAware ADS-B
Fri 02:49:58 PM 41.1687 -72.0452 219° Southwest 405 466 22,100 -2,302 Descending FlightAware ADS-B
Fri 02:51:03 PM 41.0905 -72.1563 227° Southwest 376 433 20,500 -1,765 Descending FlightAware ADS-B
Fri 02:51:57 PM 41.0720 -72.2310 252° West 398 458 18,600 -2,037 Descending FlightAware ADS-B
Fri 02:52:52 PM 41.0330 -72.3870 252° West 371 427 16,800 -2,084 Descending FlightAware ADS-B
Fri 02:53:32 PM 41.0120 -72.4720 252° West 359 413 15,300 -2,118 Descending FlightAware ADS-B
Fri 02:54:17 PM 40.9900 -72.5590 252° West 332 382 13,800 -1,765 Descending FlightAware ADS-B
Fri 02:54:57 PM 40.9710 -72.6350 252° West 313 360 12,800 -988 Descending FlightAware ADS-B
Fri 02:55:42 PM 40.9400 -72.7010 238° Southwest 275 316 12,400 -609 Descending FlightAware ADS-B
Fri 02:56:06 PM 40.9128 -72.7363 224° Southwest 267 307 12,100 -212 Descending FlightAware ADS-B
Fri 02:57:07 PM 40.8670 -72.7980 226° Southwest 252 290 12,100  Level FlightAware ADS-B
Fri 02:58:02 PM 40.8210 -72.8570 224° Southwest 251 289 12,100 -400 Level FlightAware ADS-B
Fri 02:58:37 PM 40.7930 -72.8930 224° Southwest 246 283 11,500 -1,050 Descending FlightAware ADS-B
Fri 02:59:22 PM 40.7560 -72.9410 225° Southwest 228 262 10,700 -1,200 Descending FlightAware ADS-B
Fri 02:59:52 PM 40.7330 -72.9710 225° Southwest 229 264 10,000 -1,200 Descending FlightAware ADS-B
Fri 03:00:22 PM 40.7120 -72.9990 225° Southwest 229 264 9,500 -1,200 Descending FlightAware ADS-B
Fri 03:00:47 PM 40.6920 -73.0270 227° Southwest 229 264 8,900 -1,350 Descending FlightAware ADS-B
Fri 03:01:02 PM 40.6890 -73.0470 259° West 242 278 8,600 -1,200 Descending FlightAware ADS-B
Fri 03:01:27 PM 40.6870 -73.0830 266° West 241 277 8,100 -1,200 Descending FlightAware ADS-B
Fri 03:01:57 PM 40.6840 -73.1280 265° West 237 273 7,500 -1,300 Descending FlightAware ADS-B
Fri 03:02:27 PM 40.6790 -73.1760 262° West 239 275 6,800 -1,855 Descending FlightAware ADS-B
Fri 03:02:52 PM 40.6750 -73.2140 262° West 238 274 5,800 -2,280 Descending FlightAware ADS-B
Fri 03:03:17 PM 40.6710 -73.2470 261° West 239 275 4,900 -2,073 Descending FlightAware ADS-B
Fri 03:03:47 PM 40.6850 -73.2870 295° West 268 308 3,900 -1,662 Descending FlightAware ADS-B
Fri 03:04:22 PM 40.7150 -73.3290 313° West 263 303 3,100 -960 Descending FlightAware ADS-B
Fri 03:04:37 PM 40.7240 -73.3450 307° West 263 303 3,100  Level FlightAware ADS-B
Fri 03:05:02 PM 40.7440 -73.3820 306° West 261 300 3,100  Level FlightAware ADS-B
Fri 03:05:27 PM 40.7590 -73.4090 306° West 261 300 3,100  Level FlightAware ADS-B
Fri 03:05:52 PM 40.7770 -73.4420 306° West 261 300 3,100  Level FlightAware ADS-B
Fri 03:06:27 PM 40.8000 -73.4810 308° West 222 255 3,100 -185 Level FlightAware ADS-B
Fri 03:06:57 PM 40.8160 -73.5160 301° West 188 216 2,900 -764 Descending FlightAware ADS-B
Fri 03:07:22 PM 40.8190 -73.5430 278° West 184 212 2,400 -960 Descending FlightAware ADS-B
Fri 03:07:47 PM 40.8220 -73.5730 278° West 185 213 2,100 -327 Descending FlightAware ADS-B
Fri 03:08:17 PM 40.8160 -73.6010 254° West 150 173 2,100  Level FlightAware ADS-B
Fri 03:08:47 PM 40.8070 -73.6260 245° Southwest 146 168 2,100  Level FlightAware ADS-B
Fri 03:09:02 PM 40.7990 -73.6350 220° Southwest 140 161 2,100  Level FlightAware ADS-B
Fri 03:09:27 PM 40.7870 -73.6440 210° Southwest 139 160 2,100  Level FlightAware ADS-B
Fri 03:09:52 PM 40.7720 -73.6560 211° Southwest 140 161 2,100  Level FlightAware ADS-B
Fri 03:10:27 PM 40.7530 -73.6710 211° Southwest 140 161 2,100  Level FlightAware ADS-B
Fri 03:10:37 PM 40.7480 -73.6750 211° Southwest 141 162 2,100  Level FlightAware ADS-B
Fri 03:11:07 PM 40.7300 -73.6890 211° Southwest 140 161 2,100 -436 Level FlightAware ADS-B
Fri 03:11:32 PM 40.7160 -73.7000 211° Southwest 134 154 1,700 -750 Descending FlightAware ADS-B
Fri 03:11:47 PM 40.7080 -73.7060 210° Southwest 129 148 1,600 -533 Descending FlightAware ADS-B
Fri 03:12:17 PM 40.6940 -73.7160 208° Southwest 117 135 1,300 -600 Descending FlightAware ADS-B

Login

Don't have an account? Register now (free) for customized features, flight alerts, and more!